Observation data for Fort Chadbourne on 10/18/2019      Previous  Date       Current Mesonet Observations  Soil Data  Daily Summary Page  Observations in Plain Language
KCH1 180500Z 08002KT 11/02 A2992 RMK A01 T01130016  RH  051%=      5-min Rain = 0
KCH1 180501Z 07002KT 11/02 A2992 RMK A01 T01140016  RH  051%=      5-min Rain = 0
KCH1 180502Z 07002KT 12/02 A2993 RMK A01 T01150016  RH  051%=      5-min Rain = 0
KCH1 180503Z 07002KT 12/02 A2993 RMK A01 T01150016  RH  051%=      5-min Rain = 0
KCH1 180504Z 06002KT 12/02 A2993 RMK A01 T01150016  RH  050%=      5-min Rain = 0
KCH1 180505Z 06002KT 12/02 A2993 RMK A01 T01150016  RH  050%=      5-min Rain = 0
KCH1 180506Z 06002KT 12/02 A2993 RMK A01 T01150016  RH  050%=      5-min Rain = 0
KCH1 180507Z 07002KT 12/02 A2993 RMK A01 T01150016  RH  050%=      5-min Rain = 0
KCH1 180508Z 06003KT 12/02 A2993 RMK A01 T01160016  RH  050%=      5-min Rain = 0
KCH1 180509Z 06003KT 12/02 A2993 RMK A01 T01160017  RH  050%=      5-min Rain = 0
KCH1 180510Z 06003KT 12/02 A2993 RMK A01 T01170017  RH  050%=      5-min Rain = 0
KCH1 180511Z 06003KT 12/02 A2992 RMK A01 T01170017  RH  050%=      5-min Rain = 0
KCH1 180512Z 06003KT 12/02 A2992 RMK A01 T01170016  RH  050%=      5-min Rain = 0
KCH1 180513Z 06004KT 12/02 A2992 RMK A01 T01170016  RH  050%=      5-min Rain = 0
KCH1 180514Z 06004KT 12/02 A2992 RMK A01 T01170017  RH  050%=      5-min Rain = 0
KCH1 180515Z 06004KT 12/02 A2992 RMK A01 T01170016  RH  050%=      5-min Rain = 0
KCH1 180516Z 07004KT 12/02 A2992 RMK A01 T01170017  RH  050%=      5-min Rain = 0
KCH1 180517Z 06003KT 12/02 A2992 RMK A01 T01160017  RH  050%=      5-min Rain = 0
KCH1 180518Z 07003KT 12/02 A2992 RMK A01 T01160017  RH  051%=      5-min Rain = 0
KCH1 180519Z 07003KT 12/02 A2992 RMK A01 T01160017  RH  051%=      5-min Rain = 0
KCH1 180520Z 06003KT 12/02 A2992 RMK A01 T01160017  RH  051%=      5-min Rain = 0
KCH1 180521Z 07003KT 12/02 A2992 RMK A01 T01160016  RH  051%=      5-min Rain = 0
KCH1 180522Z 06003KT 12/02 A2992 RMK A01 T01160017  RH  050%=      5-min Rain = 0
KCH1 180523Z 06003KT 12/02 A2993 RMK A01 T01170017  RH  050%=      5-min Rain = 0
KCH1 180524Z 06003KT 12/02 A2993 RMK A01 T01170017  RH  050%=      5-min Rain = 0
KCH1 180525Z 06003KT 12/02 A2993 RMK A01 T01170017  RH  050%=      5-min Rain = 0
KCH1 180526Z 06003KT 12/02 A2993 RMK A01 T01180017  RH  050%=      5-min Rain = 0
KCH1 180527Z 06003KT 12/02 A2993 RMK A01 T01180017  RH  050%=      5-min Rain = 0
KCH1 180528Z 06003KT 12/02 A2992 RMK A01 T01180017  RH  050%=      5-min Rain = 0
KCH1 180529Z 06003KT 12/02 A2992 RMK A01 T01180017  RH  050%=      5-min Rain = 0
KCH1 180530Z 06003KT 12/02 A2992 RMK A01 T01180017  RH  050%=      5-min Rain = 0
KCH1 180531Z 06003KT 12/02 A2993 RMK A01 T01170017  RH  050%=      5-min Rain = 0
KCH1 180532Z 06003KT 12/02 A2993 RMK A01 T01170017  RH  050%=      5-min Rain = 0
KCH1 180533Z 06003KT 12/02 A2992 RMK A01 T01170017  RH  050%=      5-min Rain = 0
KCH1 180534Z 06003KT 12/02 A2992 RMK A01 T01170017  RH  050%=      5-min Rain = 0
KCH1 180535Z 06003KT 12/02 A2992 RMK A01 T01160017  RH  051%=      5-min Rain = 0
KCH1 180536Z 06003KT 12/02 A2992 RMK A01 T01160017  RH  051%=      5-min Rain = 0
KCH1 180537Z 06003KT 12/02 A2992 RMK A01 T01160018  RH  051%=      5-min Rain = 0
KCH1 180538Z 06003KT 12/02 A2992 RMK A01 T01160018  RH  051%=      5-min Rain = 0
KCH1 180539Z 06003KT 12/02 A2992 RMK A01 T01160018  RH  051%=      5-min Rain = 0
KCH1 180540Z 06003KT 12/02 A2992 RMK A01 T01150018  RH  051%=      5-min Rain = 0
KCH1 180541Z 06003KT 11/02 A2992 RMK A01 T01140018  RH  051%=      5-min Rain = 0
KCH1 180542Z 06003KT 11/02 A2992 RMK A01 T01140017  RH  051%=      5-min Rain = 0
KCH1 180543Z 06003KT 11/02 A2992 RMK A01 T01130017  RH  052%=      5-min Rain = 0
KCH1 180544Z 06003KT 11/02 A2992 RMK A01 T01130018  RH  052%=      5-min Rain = 0
KCH1 180545Z 07003KT 11/02 A2992 RMK A01 T01130018  RH  052%=      5-min Rain = 0
KCH1 180546Z 07003KT 11/02 A2992 RMK A01 T01130018  RH  052%=      5-min Rain = 0
KCH1 180547Z 07004KT 11/02 A2992 RMK A01 T01130018  RH  052%=      5-min Rain = 0
KCH1 180548Z 07004KT 11/02 A2992 RMK A01 T01120019  RH  052%=      5-min Rain = 0
KCH1 180549Z 07004KT 11/02 A2992 RMK A01 T01110018  RH  053%=      5-min Rain = 0
KCH1 180550Z 07004KT 11/02 A2992 RMK A01 T01090018  RH  053%=      5-min Rain = 0
KCH1 180551Z 07004KT 11/02 A2992 RMK A01 T01080017  RH  054%=      5-min Rain = 0
KCH1 180552Z 07004KT 11/02 A2992 RMK A01 T01060017  RH  054%=      5-min Rain = 0
KCH1 180553Z 07004KT 11/02 A2992 RMK A01 T01050018  RH  055%=      5-min Rain = 0
KCH1 180554Z 07005KT 10/02 A2992 RMK A01 T01030018  RH  055%=      5-min Rain = 0
KCH1 180555Z 07005KT 10/02 A2991 RMK A01 T01000018  RH  057%=      5-min Rain = 0
KCH1 180556Z 08004KT 10/02 A2991 RMK A01 T00980018  RH  058%=      5-min Rain = 0
KCH1 180557Z 08004KT 10/02 A2991 RMK A01 T00960019  RH  058%=      5-min Rain = 0
KCH1 180558Z 08004KT 10/02 A2991 RMK A01 T00950019  RH  059%=      5-min Rain = 0
KCH1 180559Z 09004KT 10/02 A2991 RMK A01 T00950019  RH  059%=      5-min Rain = 0
KCH1 180600Z 09004KT 10/02 A2991 RMK A01 T00950019  RH  059%=      5-min Rain = 0
KCH1 180601Z 09004KT 10/02 A2991 RMK A01 T00960019  RH  059%=      5-min Rain = 0
KCH1 180602Z 10004KT 10/02 A2991 RMK A01 T00970019  RH  059%=      5-min Rain = 0
KCH1 180603Z 10004KT 10/02 A2991 RMK A01 T00980020  RH  058%=      5-min Rain = 0
KCH1 180604Z 10004KT 10/02 A2991 RMK A01 T00980020  RH  058%=      5-min Rain = 0
KCH1 180605Z 10003KT 10/02 A2991 RMK A01 T00980020  RH  058%=      5-min Rain = 0
KCH1 180606Z 09003KT 10/02 A2991 RMK A01 T00980020  RH  058%=      5-min Rain = 0
KCH1 180607Z 09003KT 10/02 A2991 RMK A01 T00980020  RH  058%=      5-min Rain = 0
KCH1 180608Z 09004KT 10/02 A2991 RMK A01 T00990020  RH  058%=      5-min Rain = 0
KCH1 180609Z 09004KT 10/02 A2991 RMK A01 T00990020  RH  058%=      5-min Rain = 0
KCH1 180610Z 09005KT 10/02 A2991 RMK A01 T00990020  RH  058%=      5-min Rain = 0
KCH1 180611Z 09005KT 10/02 A2991 RMK A01 T00990020  RH  058%=      5-min Rain = 0
KCH1 180612Z 09006KT 10/02 A2991 RMK A01 T00990020  RH  058%=      5-min Rain = 0
KCH1 180613Z 09005KT 10/02 A2991 RMK A01 T00970020  RH  059%=      5-min Rain = 0
KCH1 180614Z 09005KT 09/02 A2991 RMK A01 T00940020  RH  060%=      5-min Rain = 0
KCH1 180615Z 08004KT 09/02 A2991 RMK A01 T00920020  RH  061%=      5-min Rain = 0
KCH1 180616Z 08004KT 09/02 A2991 RMK A01 T00910020  RH  061%=      5-min Rain = 0
KCH1 180617Z 08003KT 09/02 A2991 RMK A01 T00910020  RH  061%=      5-min Rain = 0
KCH1 180618Z 09004KT 09/02 A2991 RMK A01 T00900020  RH  061%=      5-min Rain = 0
KCH1 180619Z 09004KT 09/02 A2991 RMK A01 T00910020  RH  061%=      5-min Rain = 0
KCH1 180620Z 09004KT 09/02 A2991 RMK A01 T00910020  RH  061%=      5-min Rain = 0
KCH1 180621Z 09004KT 09/02 A2991 RMK A01 T00910020  RH  061%=      5-min Rain = 0
KCH1 180622Z 09004KT 09/02 A2991 RMK A01 T00910020  RH  061%=      5-min Rain = 0
KCH1 180623Z 09004KT 09/02 A2991 RMK A01 T00900021  RH  062%=      5-min Rain = 0
KCH1 180624Z 09003KT 09/02 A2991 RMK A01 T00900021  RH  062%=      5-min Rain = 0
KCH1 180625Z 09002KT 09/02 A2991 RMK A01 T00910022  RH  062%=      5-min Rain = 0
KCH1 180626Z 10002KT 09/02 A2991 RMK A01 T00920022  RH  062%=      5-min Rain = 0
KCH1 180627Z 10002KT 09/02 A2991 RMK A01 T00930023  RH  062%=      5-min Rain = 0
KCH1 180628Z 10003KT 10/02 A2991 RMK A01 T00950024  RH  061%=      5-min Rain = 0
KCH1 180629Z 09003KT 10/02 A2991 RMK A01 T00970024  RH  060%=      5-min Rain = 0
KCH1 180630Z 10003KT 10/02 A2991 RMK A01 T00990024  RH  060%=      5-min Rain = 0
KCH1 180631Z 09003KT 10/02 A2991 RMK A01 T00990024  RH  059%=      5-min Rain = 0
KCH1 180632Z 09003KT 10/02 A2991 RMK A01 T00990023  RH  059%=      5-min Rain = 0
KCH1 180633Z 08003KT 10/02 A2991 RMK A01 T00990024  RH  059%=      5-min Rain = 0
KCH1 180634Z 08002KT 10/02 A2991 RMK A01 T00990023  RH  059%=      5-min Rain = 0
KCH1 180635Z 08003KT 10/02 A2991 RMK A01 T00990023  RH  059%=      5-min Rain = 0
KCH1 180636Z 08003KT 10/02 A2991 RMK A01 T00990023  RH  059%=      5-min Rain = 0
KCH1 180637Z 08003KT 10/02 A2991 RMK A01 T00990024  RH  060%=      5-min Rain = 0
KCH1 180638Z 08003KT 10/02 A2991 RMK A01 T00990024  RH  060%=      5-min Rain = 0
KCH1 180639Z 08003KT 10/02 A2991 RMK A01 T00980023  RH  060%=      5-min Rain = 0
KCH1 180640Z 08003KT 10/02 A2991 RMK A01 T00980024  RH  060%=      5-min Rain = 0
KCH1 180641Z 08003KT 10/02 A2991 RMK A01 T00980024  RH  060%=      5-min Rain = 0
KCH1 180642Z 07003KT 10/02 A2991 RMK A01 T00980024  RH  060%=      5-min Rain = 0
KCH1 180643Z 07003KT 10/02 A299 RMK A01 T00980024  RH  060%=      5-min Rain = 0
KCH1 180644Z 08004KT 10/02 A299 RMK A01 T00990024  RH  060%=      5-min Rain = 0
KCH1 180645Z 08004KT 10/02 A299 RMK A01 T00980024  RH  060%=      5-min Rain = 0
KCH1 180646Z 07004KT 10/02 A299 RMK A01 T00970024  RH  060%=      5-min Rain = 0
KCH1 180647Z 07005KT 10/02 A299 RMK A01 T00960024  RH  061%=      5-min Rain = 0
KCH1 180648Z 08005KT 09/02 A299 RMK A01 T00940024  RH  061%=      5-min Rain = 0
KCH1 180649Z 08005KT 09/02 A299 RMK A01 T00930024  RH  062%=      5-min Rain = 0
KCH1 180650Z 07004KT 09/02 A299 RMK A01 T00920024  RH  063%=      5-min Rain = 0
KCH1 180651Z 07004KT 09/03 A299 RMK A01 T00910025  RH  063%=      5-min Rain = 0
KCH1 180652Z 08004KT 09/02 A299 RMK A01 T00910024  RH  063%=      5-min Rain = 0
KCH1 180653Z 08004KT 09/03 A299 RMK A01 T00910025  RH  063%=      5-min Rain = 0
KCH1 180654Z 08004KT 09/03 A299 RMK A01 T00920026  RH  063%=      5-min Rain = 0
KCH1 180655Z 08004KT 09/03 A299 RMK A01 T00920026  RH  063%=      5-min Rain = 0
KCH1 180656Z 09004KT 09/03 A299 RMK A01 T00930025  RH  063%=      5-min Rain = 0
KCH1 180657Z 09004KT 09/03 A299 RMK A01 T00920025  RH  063%=      5-min Rain = 0
KCH1 180658Z 09004KT 09/03 A299 RMK A01 T00910025  RH  063%=      5-min Rain = 0
KCH1 180659Z 09004KT 09/03 A299 RMK A01 T00910025  RH  063%=      5-min Rain = 0
KCH1 180700Z 09004KT 09/03 A299 RMK A01 T00900025  RH  064%=      5-min Rain = 0
KCH1 180701Z 10004KT 09/03 A299 RMK A01 T00900025  RH  064%=      5-min Rain = 0
KCH1 180702Z 10004KT 09/03 A299 RMK A01 T00900025  RH  064%=      5-min Rain = 0
KCH1 180703Z 10004KT 09/03 A299 RMK A01 T00900025  RH  064%=      5-min Rain = 0
KCH1 180704Z 11004KT 09/03 A299 RMK A01 T00900025  RH  064%=      5-min Rain = 0
KCH1 180705Z 11004KT 09/03 A299 RMK A01 T00890025  RH  064%=      5-min Rain = 0
KCH1 180706Z 11004KT 09/03 A299 RMK A01 T00900025  RH  064%=      5-min Rain = 0
KCH1 180707Z 11004KT 09/03 A299 RMK A01 T00890025  RH  064%=      5-min Rain = 0
KCH1 180708Z 11004KT 09/03 A299 RMK A01 T00900025  RH  064%=      5-min Rain = 0
KCH1 180709Z 11004KT 09/03 A299 RMK A01 T00900025  RH  064%=      5-min Rain = 0
KCH1 180710Z 11004KT 09/03 A2989 RMK A01 T00890026  RH  064%=      5-min Rain = 0
KCH1 180711Z 11004KT 09/03 A2989 RMK A01 T00900026  RH  064%=      5-min Rain = 0
KCH1 180712Z 11004KT 09/03 A2989 RMK A01 T00890026  RH  064%=      5-min Rain = 0
KCH1 180713Z 11004KT 09/03 A2989 RMK A01 T00900027  RH  065%=      5-min Rain = 0
KCH1 180714Z 11003KT 09/03 A2989 RMK A01 T00910028  RH  065%=      5-min Rain = 0
KCH1 180715Z 11003KT 09/03 A2989 RMK A01 T00910028  RH  065%=      5-min Rain = 0
KCH1 180716Z 11003KT 09/03 A2989 RMK A01 T00920029  RH  064%=      5-min Rain = 0
KCH1 180717Z 11003KT 09/03 A2989 RMK A01 T00930029  RH  064%=      5-min Rain = 0
KCH1 180718Z 11003KT 09/03 A2989 RMK A01 T00940029  RH  064%=      5-min Rain = 0
KCH1 180719Z 11003KT 10/03 A2989 RMK A01 T00950030  RH  064%=      5-min Rain = 0
KCH1 180720Z 11003KT 10/03 A2989 RMK A01 T00960030  RH  064%=      5-min Rain = 0
KCH1 180721Z 11003KT 10/03 A2989 RMK A01 T00970031  RH  064%=      5-min Rain = 0
KCH1 180722Z 12003KT 10/03 A2989 RMK A01 T00970031  RH  063%=      5-min Rain = 0
KCH1 180723Z 12003KT 10/03 A2989 RMK A01 T00980031  RH  063%=      5-min Rain = 0
KCH1 180724Z 12003KT 10/03 A2989 RMK A01 T00990032  RH  063%=      5-min Rain = 0
KCH1 180725Z 12003KT 10/03 A2989 RMK A01 T01010032  RH  063%=      5-min Rain = 0
KCH1 180726Z 12003KT 10/03 A2989 RMK A01 T01010032  RH  062%=      5-min Rain = 0
KCH1 180727Z 12003KT 10/03 A2989 RMK A01 T01020032  RH  062%=      5-min Rain = 0
KCH1 180728Z 12002KT 10/03 A2989 RMK A01 T01020032  RH  062%=      5-min Rain = 0
KCH1 180729Z 11002KT 10/03 A2989 RMK A01 T01030032  RH  061%=      5-min Rain = 0
KCH1 180730Z 11002KT 10/03 A2989 RMK A01 T01030032  RH  062%=      5-min Rain = 0
KCH1 180731Z 11002KT 10/03 A2989 RMK A01 T01030032  RH  062%=      5-min Rain = 0
KCH1 180732Z 10003KT 10/03 A2989 RMK A01 T01030032  RH  062%=      5-min Rain = 0
KCH1 180733Z 10003KT 10/03 A2989 RMK A01 T01020032  RH  062%=      5-min Rain = 0
KCH1 180734Z 10003KT 10/03 A2989 RMK A01 T01010032  RH  062%=      5-min Rain = 0
KCH1 180735Z 10003KT 10/03 A2989 RMK A01 T01010032  RH  062%=      5-min Rain = 0
KCH1 180736Z 11003KT 10/03 A2989 RMK A01 T01010032  RH  062%=      5-min Rain = 0
KCH1 180737Z 11003KT 10/03 A2989 RMK A01 T01000032  RH  062%=      5-min Rain = 0
KCH1 180738Z 11003KT 10/03 A2989 RMK A01 T01000032  RH  063%=      5-min Rain = 0
KCH1 180739Z 11003KT 10/03 A2989 RMK A01 T01000032  RH  063%=      5-min Rain = 0
KCH1 180740Z 11003KT 10/03 A2989 RMK A01 T01000032  RH  063%=      5-min Rain = 0
KCH1 180741Z 11003KT 10/03 A2989 RMK A01 T01000032  RH  063%=      5-min Rain = 0
KCH1 180742Z 11002KT 10/03 A2989 RMK A01 T01000032  RH  063%=      5-min Rain = 0
KCH1 180743Z 11002KT 10/03 A2989 RMK A01 T00990032  RH  063%=      5-min Rain = 0
KCH1 180744Z 11003KT 10/03 A2989 RMK A01 T00990032  RH  063%=      5-min Rain = 0
KCH1 180745Z 11003KT 10/03 A2989 RMK A01 T00980032  RH  063%=      5-min Rain = 0
KCH1 180746Z 10003KT 10/03 A2989 RMK A01 T00970032  RH  064%=      5-min Rain = 0
KCH1 180747Z 10003KT 10/03 A2989 RMK A01 T00970032  RH  064%=      5-min Rain = 0
KCH1 180748Z 11003KT 10/03 A2989 RMK A01 T00960032  RH  064%=      5-min Rain = 0
KCH1 180749Z 11002KT 10/03 A2989 RMK A01 T00960032  RH  064%=      5-min Rain = 0
KCH1 180750Z 11002KT 10/03 A2989 RMK A01 T00960031  RH  064%=      5-min Rain = 0
KCH1 180751Z 11002KT 10/03 A2989 RMK A01 T00970032  RH  064%=      5-min Rain = 0
KCH1 180752Z 11003KT 10/03 A2989 RMK A01 T00970032  RH  064%=      5-min Rain = 0
KCH1 180753Z 11003KT 10/03 A2989 RMK A01 T00970032  RH  064%=      5-min Rain = 0
KCH1 180754Z 11003KT 10/03 A2989 RMK A01 T00970032  RH  064%=      5-min Rain = 0
KCH1 180755Z 11003KT 10/03 A2989 RMK A01 T00980032  RH  064%=      5-min Rain = 0
KCH1 180756Z 11003KT 10/03 A2989 RMK A01 T00980032  RH  064%=      5-min Rain = 0
KCH1 180757Z 11003KT 10/03 A2989 RMK A01 T00970031  RH  064%=      5-min Rain = 0
KCH1 180758Z 11003KT 10/03 A2989 RMK A01 T00960031  RH  064%=      5-min Rain = 0
KCH1 180759Z 11004KT 10/03 A2989 RMK A01 T00960031  RH  064%=      5-min Rain = 0
KCH1 180800Z 11004KT 10/03 A2989 RMK A01 T00950031  RH  064%=      5-min Rain = 0
KCH1 180801Z 11004KT 09/03 A2989 RMK A01 T00940031  RH  065%=      5-min Rain = 0
KCH1 180802Z 11004KT 09/03 A2989 RMK A01 T00930031  RH  065%=      5-min Rain = 0
KCH1 180803Z 11003KT 09/03 A2989 RMK A01 T00930032  RH  065%=      5-min Rain = 0
KCH1 180804Z 11003KT 09/03 A2989 RMK A01 T00930032  RH  066%=      5-min Rain = 0
KCH1 180805Z 12004KT 09/03 A2989 RMK A01 T00930032  RH  066%=      5-min Rain = 0
KCH1 180806Z 12004KT 09/03 A2989 RMK A01 T00940032  RH  066%=      5-min Rain = 0
KCH1 180807Z 12004KT 10/03 A2989 RMK A01 T00950033  RH  065%=      5-min Rain = 0
KCH1 180808Z 12004KT 10/03 A2989 RMK A01 T00960033  RH  065%=      5-min Rain = 0
KCH1 180809Z 12004KT 10/03 A2989 RMK A01 T00960033  RH  065%=      5-min Rain = 0
KCH1 180810Z 12003KT 10/03 A2989 RMK A01 T00960033  RH  065%=      5-min Rain = 0
KCH1 180811Z 12003KT 10/03 A2989 RMK A01 T00960033  RH  065%=      5-min Rain = 0
KCH1 180812Z 13004KT 10/03 A2989 RMK A01 T00960033  RH  065%=      5-min Rain = 0
KCH1 180813Z 13004KT 10/03 A2989 RMK A01 T00970033  RH  064%=      5-min Rain = 0
KCH1 180814Z 13004KT 10/03 A2989 RMK A01 T00980033  RH  064%=      5-min Rain = 0
KCH1 180815Z 12004KT 10/03 A2989 RMK A01 T00990033  RH  064%=      5-min Rain = 0
KCH1 180816Z 12004KT 10/03 A2989 RMK A01 T00990033  RH  064%=      5-min Rain = 0
KCH1 180817Z 12004KT 10/03 A2989 RMK A01 T00990033  RH  064%=      5-min Rain = 0
KCH1 180818Z 12004KT 10/03 A2989 RMK A01 T00980033  RH  064%=      5-min Rain = 0
KCH1 180819Z 12004KT 10/03 A2989 RMK A01 T00970033  RH  064%=      5-min Rain = 0
KCH1 180820Z 12004KT 10/03 A2989 RMK A01 T00960033  RH  065%=      5-min Rain = 0
KCH1 180821Z 11004KT 09/03 A2989 RMK A01 T00940033  RH  065%=      5-min Rain = 0
KCH1 180822Z 11004KT 09/03 A2989 RMK A01 T00920032  RH  066%=      5-min Rain = 0
KCH1 180823Z 11004KT 09/03 A2989 RMK A01 T00910032  RH  067%=      5-min Rain = 0
KCH1 180824Z 11004KT 09/03 A2989 RMK A01 T00900033  RH  067%=      5-min Rain = 0
KCH1 180825Z 11003KT 09/03 A2989 RMK A01 T00890033  RH  068%=      5-min Rain = 0
KCH1 180826Z 11003KT 09/03 A2989 RMK A01 T00890033  RH  068%=      5-min Rain = 0
KCH1 180827Z 11003KT 09/03 A2989 RMK A01 T00880033  RH  068%=      5-min Rain = 0
KCH1 180828Z 11003KT 09/03 A2989 RMK A01 T00890032  RH  068%=      5-min Rain = 0
KCH1 180829Z 11003KT 09/03 A2989 RMK A01 T00890032  RH  068%=      5-min Rain = 0
KCH1 180830Z 10002KT 09/03 A2989 RMK A01 T00900033  RH  067%=      5-min Rain = 0
KCH1 180831Z 10002KT 09/03 A2989 RMK A01 T00910033  RH  067%=      5-min Rain = 0
KCH1 180832Z 09002KT 09/03 A2989 RMK A01 T00920033  RH  066%=      5-min Rain = 0
KCH1 180833Z 09003KT 09/03 A2989 RMK A01 T00930033  RH  066%=      5-min Rain = 0
KCH1 180834Z 09003KT 09/03 A2989 RMK A01 T00940033  RH  065%=      5-min Rain = 0
KCH1 180835Z 09003KT 10/03 A2989 RMK A01 T00950033  RH  065%=      5-min Rain = 0
KCH1 180836Z 09003KT 10/03 A2989 RMK A01 T00950032  RH  065%=      5-min Rain = 0
KCH1 180837Z 09002KT 10/03 A2989 RMK A01 T00960032  RH  065%=      5-min Rain = 0
KCH1 180838Z 10003KT 10/03 A2989 RMK A01 T00960032  RH  064%=      5-min Rain = 0
KCH1 180839Z 11003KT 10/03 A2989 RMK A01 T00970032  RH  064%=      5-min Rain = 0
KCH1 180840Z 11003KT 10/03 A2989 RMK A01 T00970032  RH  064%=      5-min Rain = 0
KCH1 180841Z 11003KT 10/03 A2989 RMK A01 T00980032  RH  064%=      5-min Rain = 0
KCH1 180842Z 10004KT 10/03 A2988 RMK A01 T00980032  RH  063%=      5-min Rain = 0
KCH1 180843Z 10004KT 10/03 A2988 RMK A01 T00990033  RH  063%=      5-min Rain = 0
KCH1 180844Z 11003KT 10/03 A2988 RMK A01 T00980032  RH  063%=      5-min Rain = 0
KCH1 180845Z 11003KT 10/03 A2988 RMK A01 T00980032  RH  064%=      5-min Rain = 0
KCH1 180846Z 11004KT 10/03 A2988 RMK A01 T00970032  RH  064%=      5-min Rain = 0
KCH1 180847Z 11004KT 10/03 A2988 RMK A01 T00970032  RH  064%=      5-min Rain = 0
KCH1 180848Z 11003KT 10/03 A2988 RMK A01 T00970032  RH  064%=      5-min Rain = 0
KCH1 180849Z 11004KT 10/03 A2988 RMK A01 T00970032  RH  064%=      5-min Rain = 0
KCH1 180850Z 11004KT 10/03 A2988 RMK A01 T00960032  RH  064%=      5-min Rain = 0
KCH1 180851Z 11003KT 09/03 A2988 RMK A01 T00940032  RH  065%=      5-min Rain = 0
KCH1 180852Z 11003KT 09/03 A2988 RMK A01 T00930032  RH  066%=      5-min Rain = 0
KCH1 180853Z 11003KT 09/03 A2988 RMK A01 T00920032  RH  066%=      5-min Rain = 0
KCH1 180854Z 11003KT 09/03 A2988 RMK A01 T00920032  RH  066%=      5-min Rain = 0
KCH1 180855Z 11003KT 09/03 A2988 RMK A01 T00920032  RH  066%=      5-min Rain = 0
KCH1 180856Z 10003KT 09/03 A2988 RMK A01 T00920032  RH  066%=      5-min Rain = 0
KCH1 180857Z 10003KT 09/03 A2988 RMK A01 T00920032  RH  066%=      5-min Rain = 0
KCH1 180858Z 10003KT 09/03 A2988 RMK A01 T00920032  RH  066%=      5-min Rain = 0
KCH1 180859Z 10003KT 09/03 A2988 RMK A01 T00920032  RH  066%=      5-min Rain = 0
KCH1 180900Z 10003KT 09/03 A2988 RMK A01 T00920032  RH  066%=      5-min Rain = 0
KCH1 180901Z 11003KT 09/03 A2988 RMK A01 T00920032  RH  066%=      5-min Rain = 0
KCH1 180902Z 10003KT 09/03 A2988 RMK A01 T00930032  RH  066%=      5-min Rain = 0
KCH1 180903Z 10003KT 09/03 A2988 RMK A01 T00930032  RH  066%=      5-min Rain = 0
KCH1 180904Z 10003KT 09/03 A2988 RMK A01 T00930032  RH  066%=      5-min Rain = 0
KCH1 180905Z 10003KT 09/03 A2988 RMK A01 T00930032  RH  066%=      5-min Rain = 0
KCH1 180906Z 10003KT 09/03 A2988 RMK A01 T00930032  RH  066%=      5-min Rain = 0
KCH1 180907Z 10003KT 09/03 A2988 RMK A01 T00930032  RH  066%=      5-min Rain = 0
KCH1 180908Z 10003KT 09/03 A2988 RMK A01 T00930032  RH  066%=      5-min Rain = 0
KCH1 180909Z 10003KT 09/03 A2988 RMK A01 T00930032  RH  066%=      5-min Rain = 0
KCH1 180910Z 10003KT 09/03 A2988 RMK A01 T00930032  RH  066%=      5-min Rain = 0
KCH1 180911Z 10003KT 09/03 A2988 RMK A01 T00930032  RH  066%=      5-min Rain = 0
KCH1 180912Z 10002KT 09/03 A2987 RMK A01 T00930032  RH  066%=      5-min Rain = 0
KCH1 180913Z 09003KT 09/03 A2987 RMK A01 T00940032  RH  065%=      5-min Rain = 0
KCH1 180914Z 09002KT 09/03 A2987 RMK A01 T00940032  RH  065%=      5-min Rain = 0
KCH1 180915Z 10002KT 09/03 A2987 RMK A01 T00940032  RH  065%=      5-min Rain = 0
KCH1 180916Z 09002KT 09/03 A2987 RMK A01 T00940032  RH  065%=      5-min Rain = 0
KCH1 180917Z 09002KT 09/03 A2987 RMK A01 T00940032  RH  065%=      5-min Rain = 0
KCH1 180918Z 09002KT 09/03 A2987 RMK A01 T00940032  RH  066%=      5-min Rain = 0
KCH1 180919Z 09003KT 09/03 A2987 RMK A01 T00930032  RH  066%=      5-min Rain = 0
KCH1 180920Z 09003KT 09/03 A2987 RMK A01 T00920032  RH  066%=      5-min Rain = 0
KCH1 180921Z 10003KT 09/03 A2987 RMK A01 T00920032  RH  066%=      5-min Rain = 0
KCH1 180922Z 10003KT 09/03 A2987 RMK A01 T00920032  RH  066%=      5-min Rain = 0
KCH1 180923Z 10003KT 09/03 A2987 RMK A01 T00910032  RH  066%=      5-min Rain = 0
KCH1 180924Z 10002KT 09/03 A2987 RMK A01 T00910032  RH  066%=      5-min Rain = 0
KCH1 180925Z 10003KT 09/03 A2987 RMK A01 T00910032  RH  067%=      5-min Rain = 0
KCH1 180926Z 10002KT 09/03 A2987 RMK A01 T00910032  RH  066%=      5-min Rain = 0
KCH1 180927Z 10002KT 09/03 A2987 RMK A01 T00920032  RH  066%=      5-min Rain = 0
KCH1 180928Z 10002KT 09/03 A2987 RMK A01 T00920032  RH  066%=      5-min Rain = 0
KCH1 180929Z 09002KT 09/03 A2986 RMK A01 T00930032  RH  066%=      5-min Rain = 0
KCH1 180930Z 09002KT 09/03 A2986 RMK A01 T00930032  RH  066%=      5-min Rain = 0
KCH1 180931Z 09001KT 09/03 A2986 RMK A01 T00930032  RH  065%=      5-min Rain = 0
KCH1 180932Z 08001KT 09/03 A2986 RMK A01 T00940032  RH  065%=      5-min Rain = 0
KCH1 180933Z 08001KT 09/03 A2986 RMK A01 T00940032  RH  065%=      5-min Rain = 0
KCH1 180934Z 08001KT 09/03 A2986 RMK A01 T00940032  RH  065%=      5-min Rain = 0
KCH1 180935Z 08001KT 10/03 A2986 RMK A01 T00950032  RH  065%=      5-min Rain = 0
KCH1 180936Z 09002KT 10/03 A2986 RMK A01 T00950032  RH  065%=      5-min Rain = 0
KCH1 180937Z 08002KT 10/03 A2986 RMK A01 T00960032  RH  064%=      5-min Rain = 0
KCH1 180938Z 08002KT 10/03 A2986 RMK A01 T00960032  RH  064%=      5-min Rain = 0
KCH1 180939Z 08002KT 10/03 A2986 RMK A01 T00960032  RH  065%=      5-min Rain = 0
KCH1 180940Z 08002KT 10/03 A2986 RMK A01 T00960032  RH  065%=      5-min Rain = 0
KCH1 180941Z 08002KT 10/03 A2986 RMK A01 T00960032  RH  065%=      5-min Rain = 0
KCH1 180942Z 07002KT 10/03 A2986 RMK A01 T00960032  RH  065%=      5-min Rain = 0
KCH1 180943Z 08002KT 10/03 A2986 RMK A01 T00950032  RH  065%=      5-min Rain = 0
KCH1 180944Z 07002KT 10/03 A2986 RMK A01 T00950032  RH  065%=      5-min Rain = 0
KCH1 180945Z 07002KT 10/03 A2986 RMK A01 T00950032  RH  065%=      5-min Rain = 0
KCH1 180946Z 07002KT 10/03 A2986 RMK A01 T00950032  RH  065%=      5-min Rain = 0
KCH1 180947Z 07001KT 10/03 A2986 RMK A01 T00950032  RH  065%=      5-min Rain = 0
KCH1 180948Z 08002KT 10/03 A2986 RMK A01 T00950033  RH  065%=      5-min Rain = 0
KCH1 180949Z 08002KT 10/03 A2986 RMK A01 T00960033  RH  065%=      5-min Rain = 0
KCH1 180950Z 08002KT 10/03 A2986 RMK A01 T00960033  RH  065%=      5-min Rain = 0
KCH1 180951Z 07002KT 10/03 A2986 RMK A01 T00960033  RH  065%=      5-min Rain = 0
KCH1 180952Z 07002KT 10/03 A2986 RMK A01 T00970033  RH  065%=      5-min Rain = 0
KCH1 180953Z 07002KT 10/03 A2986 RMK A01 T00970033  RH  064%=      5-min Rain = 0
KCH1 180954Z 07002KT 10/03 A2986 RMK A01 T00970033  RH  064%=      5-min Rain = 0
KCH1 180955Z 08002KT 10/03 A2986 RMK A01 T00970033  RH  064%=      5-min Rain = 0
KCH1 180956Z 07001KT 10/03 A2986 RMK A01 T00970033  RH  064%=      5-min Rain = 0
KCH1 180957Z 06001KT 10/03 A2986 RMK A01 T00970033  RH  064%=      5-min Rain = 0
KCH1 180958Z 08001KT 10/03 A2986 RMK A01 T00970033  RH  064%=      5-min Rain = 0
KCH1 180959Z 07001KT 10/03 A2986 RMK A01 T00980033  RH  064%=      5-min Rain = 0
KCH1 181000Z 07001KT 10/03 A2986 RMK A01 T00980034  RH  064%=      5-min Rain = 0
KCH1 181001Z 07001KT 10/03 A2986 RMK A01 T00990034  RH  064%=      5-min Rain = 0
KCH1 181002Z 09002KT 10/03 A2986 RMK A01 T00990034  RH  064%=      5-min Rain = 0
KCH1 181003Z 09001KT 10/03 A2986 RMK A01 T01000034  RH  064%=      5-min Rain = 0
KCH1 181004Z 06001KT 10/03 A2986 RMK A01 T01000034  RH  064%=      5-min Rain = 0
KCH1 181005Z 06001KT 10/03 A2986 RMK A01 T01000034  RH  064%=      5-min Rain = 0
KCH1 181006Z 06002KT 10/03 A2986 RMK A01 T01000034  RH  064%=      5-min Rain = 0
KCH1 181007Z 05002KT 10/03 A2986 RMK A01 T01000034  RH  064%=      5-min Rain = 0
KCH1 181008Z 06002KT 10/03 A2986 RMK A01 T01000034  RH  064%=      5-min Rain = 0
KCH1 181009Z 07002KT 10/03 A2986 RMK A01 T01000034  RH  064%=      5-min Rain = 0
KCH1 181010Z 07001KT 10/03 A2986 RMK A01 T00990034  RH  064%=      5-min Rain = 0
KCH1 181011Z 08002KT 10/03 A2986 RMK A01 T00990034  RH  064%=      5-min Rain = 0
KCH1 181012Z 07002KT 10/03 A2986 RMK A01 T00990034  RH  064%=      5-min Rain = 0
KCH1 181013Z 08002KT 10/03 A2986 RMK A01 T00990034  RH  064%=      5-min Rain = 0
KCH1 181014Z 08003KT 10/03 A2986 RMK A01 T00980034  RH  064%=      5-min Rain = 0
KCH1 181015Z 08003KT 10/03 A2986 RMK A01 T00970034  RH  065%=      5-min Rain = 0
KCH1 181016Z 08003KT 10/03 A2986 RMK A01 T00960034  RH  065%=      5-min Rain = 0
KCH1 181017Z 08003KT 09/03 A2986 RMK A01 T00940034  RH  066%=      5-min Rain = 0
KCH1 181018Z 09003KT 09/03 A2986 RMK A01 T00940034  RH  066%=      5-min Rain = 0
KCH1 181019Z 09003KT 09/03 A2986 RMK A01 T00940034  RH  066%=      5-min Rain = 0
KCH1 181020Z 09003KT 09/03 A2986 RMK A01 T00940034  RH  066%=      5-min Rain = 0
KCH1 181021Z 09003KT 09/03 A2986 RMK A01 T00930034  RH  066%=      5-min Rain = 0
KCH1 181022Z 09002KT 09/03 A2986 RMK A01 T00930034  RH  067%=      5-min Rain = 0
KCH1 181023Z 10002KT 09/03 A2986 RMK A01 T00930034  RH  067%=      5-min Rain = 0
KCH1 181024Z 08002KT 09/03 A2986 RMK A01 T00930034  RH  067%=      5-min Rain = 0
KCH1 181025Z 09002KT 09/03 A2986 RMK A01 T00940034  RH  066%=      5-min Rain = 0
KCH1 181026Z 09002KT 09/03 A2986 RMK A01 T00940034  RH  066%=      5-min Rain = 0
KCH1 181027Z 10002KT 09/03 A2986 RMK A01 T00940034  RH  066%=      5-min Rain = 0
KCH1 181028Z 09002KT 09/03 A2986 RMK A01 T00940034  RH  066%=      5-min Rain = 0
KCH1 181029Z 09002KT 10/03 A2986 RMK A01 T00950034  RH  066%=      5-min Rain = 0
KCH1 181030Z 09003KT 10/04 A2986 RMK A01 T00950035  RH  066%=      5-min Rain = 0
KCH1 181031Z 10003KT 10/03 A2986 RMK A01 T00950034  RH  066%=      5-min Rain = 0
KCH1 181032Z 09003KT 10/03 A2986 RMK A01 T00950034  RH  066%=      5-min Rain = 0
KCH1 181033Z 09003KT 09/03 A2986 RMK A01 T00940034  RH  066%=      5-min Rain = 0
KCH1 181034Z 10003KT 09/03 A2986 RMK A01 T00930034  RH  067%=      5-min Rain = 0
KCH1 181035Z 09003KT 09/03 A2986 RMK A01 T00920034  RH  067%=      5-min Rain = 0
KCH1 181036Z 09003KT 09/03 A2986 RMK A01 T00910034  RH  067%=      5-min Rain = 0
KCH1 181037Z 09003KT 09/04 A2986 RMK A01 T00910035  RH  068%=      5-min Rain = 0
KCH1 181038Z 09003KT 09/03 A2986 RMK A01 T00890034  RH  068%=      5-min Rain = 0
KCH1 181039Z 10004KT 09/03 A2986 RMK A01 T00880034  RH  069%=      5-min Rain = 0
KCH1 181040Z 09003KT 09/04 A2986 RMK A01 T00880035  RH  069%=      5-min Rain = 0
KCH1 181041Z 09003KT 09/04 A2986 RMK A01 T00880035  RH  069%=      5-min Rain = 0
KCH1 181042Z 09003KT 09/04 A2986 RMK A01 T00880035  RH  070%=      5-min Rain = 0
KCH1 181043Z 09003KT 09/04 A2986 RMK A01 T00880035  RH  070%=      5-min Rain = 0
KCH1 181044Z 09003KT 09/04 A2986 RMK A01 T00880035  RH  069%=      5-min Rain = 0
KCH1 181045Z 09003KT 09/04 A2986 RMK A01 T00890035  RH  069%=      5-min Rain = 0
KCH1 181046Z 09004KT 09/04 A2986 RMK A01 T00900035  RH  069%=      5-min Rain = 0
KCH1 181047Z 09003KT 09/04 A2986 RMK A01 T00910035  RH  068%=      5-min Rain = 0
KCH1 181048Z 09004KT 09/04 A2986 RMK A01 T00910035  RH  068%=      5-min Rain = 0
KCH1 181049Z 09003KT 09/04 A2986 RMK A01 T00910035  RH  068%=      5-min Rain = 0
KCH1 181050Z 08003KT 09/04 A2986 RMK A01 T00910035  RH  068%=      5-min Rain = 0
KCH1 181051Z 09003KT 09/04 A2986 RMK A01 T00910035  RH  068%=      5-min Rain = 0
KCH1 181052Z 09003KT 09/04 A2986 RMK A01 T00910035  RH  068%=      5-min Rain = 0
KCH1 181053Z 09004KT 09/04 A2986 RMK A01 T00910036  RH  068%=      5-min Rain = 0
KCH1 181054Z 09004KT 09/04 A2986 RMK A01 T00910036  RH  068%=      5-min Rain = 0
KCH1 181055Z 09004KT 09/04 A2986 RMK A01 T00910035  RH  068%=      5-min Rain = 0
KCH1 181056Z 09004KT 09/04 A2986 RMK A01 T00900036  RH  069%=      5-min Rain = 0
KCH1 181057Z 09004KT 09/04 A2986 RMK A01 T00890036  RH  069%=      5-min Rain = 0
KCH1 181058Z 09004KT 09/04 A2986 RMK A01 T00880035  RH  069%=      5-min Rain = 0
KCH1 181059Z 09004KT 09/04 A2986 RMK A01 T00870035  RH  070%=      5-min Rain = 0
KCH1 181100Z 09004KT 09/04 A2986 RMK A01 T00870036  RH  070%=      5-min Rain = 0
KCH1 181101Z 09004KT 09/04 A2986 RMK A01 T00870036  RH  070%=      5-min Rain = 0
KCH1 181102Z 09004KT 09/04 A2986 RMK A01 T00870036  RH  070%=      5-min Rain = 0
KCH1 181103Z 10004KT 09/04 A2986 RMK A01 T00870036  RH  070%=      5-min Rain = 0
KCH1 181104Z 10004KT 09/04 A2986 RMK A01 T00880036  RH  070%=      5-min Rain = 0
KCH1 181105Z 10004KT 09/04 A2986 RMK A01 T00890036  RH  069%=      5-min Rain = 0
KCH1 181106Z 10004KT 09/04 A2986 RMK A01 T00900036  RH  069%=      5-min Rain = 0
KCH1 181107Z 11003KT 09/04 A2986 RMK A01 T00890035  RH  069%=      5-min Rain = 0
KCH1 181108Z 11003KT 09/04 A2986 RMK A01 T00900036  RH  069%=      5-min Rain = 0
KCH1 181109Z 11002KT 09/04 A2986 RMK A01 T00900036  RH  069%=      5-min Rain = 0
KCH1 181110Z 10002KT 09/04 A2986 RMK A01 T00900036  RH  069%=      5-min Rain = 0
KCH1 181111Z 09002KT 09/04 A2986 RMK A01 T00900036  RH  069%=      5-min Rain = 0
KCH1 181112Z 09002KT 09/04 A2986 RMK A01 T00900036  RH  069%=      5-min Rain = 0
KCH1 181113Z 08002KT 09/04 A2986 RMK A01 T00900036  RH  069%=      5-min Rain = 0
KCH1 181114Z 08002KT 09/04 A2986 RMK A01 T00900036  RH  069%=      5-min Rain = 0
KCH1 181115Z 07002KT 09/04 A2986 RMK A01 T00910037  RH  069%=      5-min Rain = 0
KCH1 181116Z 06002KT 09/04 A2986 RMK A01 T00910036  RH  069%=      5-min Rain = 0
KCH1 181117Z 06002KT 09/04 A2986 RMK A01 T00910037  RH  069%=      5-min Rain = 0
KCH1 181118Z 06002KT 09/04 A2986 RMK A01 T00920037  RH  069%=      5-min Rain = 0
KCH1 181119Z 06002KT 09/04 A2986 RMK A01 T00920037  RH  069%=      5-min Rain = 0
KCH1 181120Z 07002KT 09/04 A2986 RMK A01 T00920037  RH  069%=      5-min Rain = 0
KCH1 181121Z 08002KT 09/04 A2986 RMK A01 T00930037  RH  068%=      5-min Rain = 0
KCH1 181122Z 07002KT 09/04 A2986 RMK A01 T00940038  RH  068%=      5-min Rain = 0
KCH1 181123Z 08002KT 09/04 A2986 RMK A01 T00940038  RH  068%=      5-min Rain = 0
KCH1 181124Z 09003KT 10/04 A2986 RMK A01 T00950038  RH  068%=      5-min Rain = 0
KCH1 181125Z 09003KT 10/04 A2986 RMK A01 T00950038  RH  068%=      5-min Rain = 0
KCH1 181126Z 09002KT 10/04 A2986 RMK A01 T00960038  RH  068%=      5-min Rain = 0
KCH1 181127Z 09002KT 10/04 A2986 RMK A01 T00950038  RH  068%=      5-min Rain = 0
KCH1 181128Z 08002KT 10/04 A2986 RMK A01 T00950038  RH  068%=      5-min Rain = 0
KCH1 181129Z 08002KT 10/04 A2986 RMK A01 T00950038  RH  068%=      5-min Rain = 0
KCH1 181130Z 09002KT 10/04 A2986 RMK A01 T00950038  RH  068%=      5-min Rain = 0
KCH1 181131Z 09002KT 10/04 A2986 RMK A01 T00950039  RH  068%=      5-min Rain = 0
KCH1 181132Z 09002KT 10/04 A2986 RMK A01 T00960039  RH  068%=      5-min Rain = 0
KCH1 181133Z 10002KT 10/04 A2986 RMK A01 T00960039  RH  067%=      5-min Rain = 0
KCH1 181134Z 10002KT 10/04 A2986 RMK A01 T00960039  RH  067%=      5-min Rain = 0
KCH1 181135Z 10002KT 10/04 A2986 RMK A01 T00960039  RH  067%=      5-min Rain = 0
KCH1 181136Z 10002KT 10/04 A2986 RMK A01 T00960039  RH  068%=      5-min Rain = 0
KCH1 181137Z 09002KT 10/04 A2986 RMK A01 T00950039  RH  068%=      5-min Rain = 0
KCH1 181138Z 09002KT 10/04 A2986 RMK A01 T00950039  RH  068%=      5-min Rain = 0
KCH1 181139Z 09002KT 09/04 A2986 RMK A01 T00940039  RH  068%=      5-min Rain = 0
KCH1 181140Z 07002KT 09/04 A2986 RMK A01 T00940039  RH  068%=      5-min Rain = 0
KCH1 181141Z 09002KT 09/04 A2986 RMK A01 T00940039  RH  068%=      5-min Rain = 0
KCH1 181142Z 08002KT 09/04 A2986 RMK A01 T00940039  RH  069%=      5-min Rain = 0
KCH1 181143Z 08002KT 09/04 A2986 RMK A01 T00930038  RH  069%=      5-min Rain = 0
KCH1 181144Z 09002KT 09/04 A2986 RMK A01 T00920039  RH  069%=      5-min Rain = 0
KCH1 181145Z 09002KT 09/04 A2986 RMK A01 T00920039  RH  069%=      5-min Rain = 0
KCH1 181146Z 09002KT 09/04 A2986 RMK A01 T00920039  RH  069%=      5-min Rain = 0
KCH1 181147Z 09002KT 09/04 A2986 RMK A01 T00920039  RH  070%=      5-min Rain = 0
KCH1 181148Z 09003KT 09/04 A2986 RMK A01 T00920039  RH  069%=      5-min Rain = 0
KCH1 181149Z 09003KT 09/04 A2986 RMK A01 T00920039  RH  069%=      5-min Rain = 0
KCH1 181150Z 10003KT 09/04 A2986 RMK A01 T00920039  RH  069%=      5-min Rain = 0
KCH1 181151Z 09003KT 09/04 A2986 RMK A01 T00920039  RH  069%=      5-min Rain = 0
KCH1 181152Z 09003KT 09/04 A2986 RMK A01 T00920039  RH  069%=      5-min Rain = 0
KCH1 181153Z 09003KT 09/04 A2986 RMK A01 T00920039  RH  069%=      5-min Rain = 0
KCH1 181154Z 10003KT 09/04 A2986 RMK A01 T00920039  RH  069%=      5-min Rain = 0
KCH1 181155Z 12003KT 09/04 A2986 RMK A01 T00920039  RH  069%=      5-min Rain = 0
KCH1 181156Z 10003KT 09/04 A2986 RMK A01 T00920039  RH  069%=      5-min Rain = 0
KCH1 181157Z 10003KT 09/04 A2986 RMK A01 T00920039  RH  070%=      5-min Rain = 0
KCH1 181158Z 09003KT 09/04 A2986 RMK A01 T00910039  RH  070%=      5-min Rain = 0
KCH1 181159Z 09004KT 09/04 A2986 RMK A01 T00900039  RH  070%=      5-min Rain = 0
KCH1 181200Z 09004KT 09/04 A2986 RMK A01 T00890038  RH  070%=      5-min Rain = 0
KCH1 181201Z 10004KT 09/04 A2986 RMK A01 T00880038  RH  071%=      5-min Rain = 0
KCH1 181202Z 10004KT 09/04 A2985 RMK A01 T00870038  RH  071%=      5-min Rain = 0
KCH1 181203Z 09004KT 09/04 A2985 RMK A01 T00850038  RH  072%=      5-min Rain = 0
KCH1 181204Z 09004KT 08/04 A2985 RMK A01 T00840038  RH  073%=      5-min Rain = 0
KCH1 181205Z 08004KT 08/04 A2985 RMK A01 T00830038  RH  073%=      5-min Rain = 0
KCH1 181206Z 08004KT 08/04 A2986 RMK A01 T00810037  RH  074%=      5-min Rain = 0
KCH1 181207Z 08004KT 08/04 A2986 RMK A01 T00800038  RH  075%=      5-min Rain = 0
KCH1 181208Z 09003KT 08/04 A2986 RMK A01 T00790038  RH  075%=      5-min Rain = 0
KCH1 181209Z 09002KT 08/04 A2986 RMK A01 T00790038  RH  075%=      5-min Rain = 0
KCH1 181210Z 08002KT 08/04 A2986 RMK A01 T00800038  RH  075%=      5-min Rain = 0
KCH1 181211Z 08003KT 08/04 A2986 RMK A01 T00810039  RH  075%=      5-min Rain = 0
KCH1 181212Z 08003KT 08/04 A2986 RMK A01 T00810039  RH  075%=      5-min Rain = 0
KCH1 181213Z 08003KT 08/04 A2986 RMK A01 T00830040  RH  074%=      5-min Rain = 0
KCH1 181214Z 08002KT 08/04 A2986 RMK A01 T00840039  RH  074%=      5-min Rain = 0
KCH1 181215Z 09002KT 09/04 A2986 RMK A01 T00850040  RH  073%=      5-min Rain = 0
KCH1 181216Z 09002KT 09/04 A2986 RMK A01 T00860040  RH  073%=      5-min Rain = 0
KCH1 181217Z 09003KT 09/04 A2986 RMK A01 T00870040  RH  072%=      5-min Rain = 0
KCH1 181218Z 10003KT 09/04 A2986 RMK A01 T00880040  RH  072%=      5-min Rain = 0
KCH1 181219Z 10002KT 09/04 A2986 RMK A01 T00880040  RH  071%=      5-min Rain = 0
KCH1 181220Z 10002KT 09/04 A2986 RMK A01 T00890039  RH  071%=      5-min Rain = 0
KCH1 181221Z 10002KT 09/04 A2986 RMK A01 T00890040  RH  071%=      5-min Rain = 0
KCH1 181222Z 11002KT 09/04 A2986 RMK A01 T00900040  RH  071%=      5-min Rain = 0
KCH1 181223Z 10003KT 09/04 A2986 RMK A01 T00900040  RH  071%=      5-min Rain = 0
KCH1 181224Z 09003KT 09/04 A2986 RMK A01 T00900040  RH  071%=      5-min Rain = 0
KCH1 181225Z 10002KT 09/04 A2986 RMK A01 T00900040  RH  071%=      5-min Rain = 0
KCH1 181226Z 08002KT 09/04 A2986 RMK A01 T00890040  RH  071%=      5-min Rain = 0
KCH1 181227Z 08001KT 09/04 A2986 RMK A01 T00890040  RH  071%=      5-min Rain = 0
KCH1 181228Z 08001KT 09/04 A2986 RMK A01 T00900040  RH  071%=      5-min Rain = 0
KCH1 181229Z 08001KT 09/04 A2987 RMK A01 T00890040  RH  071%=      5-min Rain = 0
KCH1 181230Z 07000KT 09/04 A2987 RMK A01 T00890041  RH  071%=      5-min Rain = 0
KCH1 181231Z 00000KT 09/04 A2987 RMK A01 T00890041  RH  071%=      5-min Rain = 0
KCH1 181232Z 09000KT 09/04 A2987 RMK A01 T00890040  RH  072%=      5-min Rain = 0
KCH1 181233Z 08000KT 09/04 A2987 RMK A01 T00890041  RH  072%=      5-min Rain = 0
KCH1 181234Z 10000KT 09/04 A2987 RMK A01 T00890041  RH  072%=      5-min Rain = 0
KCH1 181235Z 00000KT 09/04 A2987 RMK A01 T00890041  RH  072%=      5-min Rain = 0
KCH1 181236Z 00000KT 09/04 A2986 RMK A01 T00890041  RH  072%=      5-min Rain = 0
KCH1 181237Z 00000KT 09/04 A2986 RMK A01 T00880041  RH  072%=      5-min Rain = 0
KCH1 181238Z 00000KT 09/04 A2986 RMK A01 T00870040  RH  072%=      5-min Rain = 0
KCH1 181239Z 00000KT 09/04 A2986 RMK A01 T00870040  RH  073%=      5-min Rain = 0
KCH1 181240Z 08000KT 09/04 A2986 RMK A01 T00870040  RH  073%=      5-min Rain = 0
KCH1 181241Z 09001KT 09/04 A2986 RMK A01 T00870040  RH  073%=      5-min Rain = 0
KCH1 181242Z 10001KT 09/04 A2986 RMK A01 T00870041  RH  073%=      5-min Rain = 0
KCH1 181243Z 10001KT 09/04 A2986 RMK A01 T00890041  RH  072%=      5-min Rain = 0
KCH1 181244Z 09001KT 09/04 A2986 RMK A01 T00900041  RH  071%=      5-min Rain = 0
KCH1 181245Z 08001KT 09/04 A2986 RMK A01 T00900041  RH  071%=      5-min Rain = 0
KCH1 181246Z 09001KT 09/04 A2986 RMK A01 T00900041  RH  071%=      5-min Rain = 0
KCH1 181247Z 09002KT 09/04 A2986 RMK A01 T00900041  RH  071%=      5-min Rain = 0
KCH1 181248Z 09002KT 09/04 A2986 RMK A01 T00900041  RH  071%=      5-min Rain = 0
KCH1 181249Z 09003KT 09/04 A2986 RMK A01 T00870040  RH  072%=      5-min Rain = 0
KCH1 181250Z 09003KT 08/04 A2986 RMK A01 T00840040  RH  074%=      5-min Rain = 0
KCH1 181251Z 09003KT 08/04 A2986 RMK A01 T00820039  RH  074%=      5-min Rain = 0
KCH1 181252Z 09004KT 08/04 A2986 RMK A01 T00790039  RH  075%=      5-min Rain = 0
KCH1 181253Z 09004KT 08/04 A2986 RMK A01 T00780039  RH  077%=      5-min Rain = 0
KCH1 181254Z 09004KT 08/04 A2986 RMK A01 T00780040  RH  077%=      5-min Rain = 0
KCH1 181255Z 08003KT 08/04 A2986 RMK A01 T00780040  RH  077%=      5-min Rain = 0
KCH1 181256Z 09003KT 08/04 A2986 RMK A01 T00780039  RH  076%=      5-min Rain = 0
KCH1 181257Z 10002KT 08/04 A2986 RMK A01 T00780040  RH  077%=      5-min Rain = 0
KCH1 181258Z 07002KT 08/04 A2986 RMK A01 T00790040  RH  077%=      5-min Rain = 0
KCH1 181259Z 08003KT 08/04 A2986 RMK A01 T00790040  RH  076%=      5-min Rain = 0
KCH1 181300Z 08003KT 08/04 A2986 RMK A01 T00800040  RH  076%=      5-min Rain = 0
KCH1 181301Z 08003KT 08/04 A2986 RMK A01 T00800040  RH  076%=      5-min Rain = 0
KCH1 181302Z 09003KT 08/04 A2986 RMK A01 T00810041  RH  076%=      5-min Rain = 0
KCH1 181303Z 09003KT 08/04 A2986 RMK A01 T00810041  RH  075%=      5-min Rain = 0
KCH1 181304Z 09003KT 08/04 A2986 RMK A01 T00820040  RH  075%=      5-min Rain = 0
KCH1 181305Z 08003KT 08/04 A2986 RMK A01 T00820041  RH  075%=      5-min Rain = 0
KCH1 181306Z 07002KT 08/04 A2986 RMK A01 T00820041  RH  075%=      5-min Rain = 0
KCH1 181307Z 06002KT 08/04 A2986 RMK A01 T00820040  RH  075%=      5-min Rain = 0
KCH1 181308Z 06001KT 08/04 A2986 RMK A01 T00820040  RH  075%=      5-min Rain = 0
KCH1 181309Z 06002KT 08/04 A2986 RMK A01 T00820041  RH  075%=      5-min Rain = 0
KCH1 181310Z 06002KT 08/04 A2986 RMK A01 T00830042  RH  075%=      5-min Rain = 0
KCH1 181311Z 07003KT 09/04 A2986 RMK A01 T00850042  RH  075%=      5-min Rain = 0
KCH1 181312Z 06003KT 09/04 A2986 RMK A01 T00870043  RH  074%=      5-min Rain = 0
KCH1 181313Z 06002KT 09/04 A2986 RMK A01 T00890044  RH  073%=      5-min Rain = 0
KCH1 181314Z 06002KT 09/04 A2986 RMK A01 T00900043  RH  072%=      5-min Rain = 0
KCH1 181315Z 07002KT 09/04 A2986 RMK A01 T00910043  RH  072%=      5-min Rain = 0
KCH1 181316Z 07002KT 09/04 A2986 RMK A01 T00930044  RH  072%=      5-min Rain = 0
KCH1 181317Z 07002KT 09/05 A2986 RMK A01 T00940045  RH  071%=      5-min Rain = 0
KCH1 181318Z 06002KT 10/05 A2986 RMK A01 T00960046  RH  071%=      5-min Rain = 0
KCH1 181319Z 06002KT 10/05 A2986 RMK A01 T00970046  RH  071%=      5-min Rain = 0
KCH1 181320Z 05002KT 10/05 A2986 RMK A01 T00970046  RH  070%=      5-min Rain = 0
KCH1 181321Z 05002KT 10/05 A2986 RMK A01 T00980047  RH  070%=      5-min Rain = 0
KCH1 181322Z 05003KT 10/05 A2986 RMK A01 T01000047  RH  070%=      5-min Rain = 0
KCH1 181323Z 04003KT 10/05 A2986 RMK A01 T01000046  RH  069%=      5-min Rain = 0
KCH1 181324Z 03002KT 10/05 A2986 RMK A01 T01000046  RH  069%=      5-min Rain = 0
KCH1 181325Z 04002KT 10/05 A2986 RMK A01 T01000047  RH  069%=      5-min Rain = 0
KCH1 181326Z 04003KT 10/05 A2986 RMK A01 T01000047  RH  070%=      5-min Rain = 0
KCH1 181327Z 04003KT 10/05 A2986 RMK A01 T01010049  RH  070%=      5-min Rain = 0
KCH1 181328Z 05002KT 10/05 A2986 RMK A01 T01020048  RH  069%=      5-min Rain = 0
KCH1 181329Z 06002KT 10/05 A2986 RMK A01 T01030048  RH  068%=      5-min Rain = 0
KCH1 181330Z 06002KT 10/05 A2986 RMK A01 T01040048  RH  068%=      5-min Rain = 0
KCH1 181331Z 07002KT 11/05 A2986 RMK A01 T01050050  RH  069%=      5-min Rain = 0
KCH1 181332Z 05002KT 11/05 A2986 RMK A01 T01060050  RH  068%=      5-min Rain = 0
KCH1 181333Z 05002KT 11/05 A2986 RMK A01 T01070052  RH  069%=      5-min Rain = 0
KCH1 181334Z 06001KT 11/05 A2986 RMK A01 T01070051  RH  068%=      5-min Rain = 0
KCH1 181335Z 07002KT 11/05 A2986 RMK A01 T01080051  RH  068%=      5-min Rain = 0
KCH1 181336Z 07002KT 11/05 A2986 RMK A01 T01090050  RH  067%=      5-min Rain = 0
KCH1 181337Z 07002KT 11/05 A2986 RMK A01 T01090049  RH  067%=      5-min Rain = 0
KCH1 181338Z 07002KT 11/05 A2986 RMK A01 T01090048  RH  066%=      5-min Rain = 0
KCH1 181339Z 07002KT 11/05 A2986 RMK A01 T01100047  RH  065%=      5-min Rain = 0
KCH1 181340Z 07002KT 11/05 A2986 RMK A01 T01100048  RH  065%=      5-min Rain = 0
KCH1 181341Z 10002KT 11/05 A2986 RMK A01 T01110048  RH  065%=      5-min Rain = 0
KCH1 181342Z 07002KT 11/05 A2986 RMK A01 T01120051  RH  066%=      5-min Rain = 0
KCH1 181343Z 07002KT 11/05 A2986 RMK A01 T01130052  RH  066%=      5-min Rain = 0
KCH1 181344Z 08002KT 11/05 A2986 RMK A01 T01140052  RH  066%=      5-min Rain = 0
KCH1 181345Z 07003KT 11/05 A2986 RMK A01 T01140049  RH  065%=      5-min Rain = 0
KCH1 181346Z 07002KT 11/05 A2986 RMK A01 T01140052  RH  066%=      5-min Rain = 0
KCH1 181347Z 07002KT 12/05 A2986 RMK A01 T01150052  RH  065%=      5-min Rain = 0
KCH1 181348Z 07002KT 12/05 A2986 RMK A01 T01160051  RH  065%=      5-min Rain = 0
KCH1 181349Z 08002KT 12/05 A2986 RMK A01 T01170052  RH  064%=      5-min Rain = 0
KCH1 181350Z 09003KT 12/05 A2986 RMK A01 T01180051  RH  064%=      5-min Rain = 0
KCH1 181351Z 08002KT 12/05 A2986 RMK A01 T01180050  RH  063%=      5-min Rain = 0
KCH1 181352Z 09002KT 12/05 A2986 RMK A01 T01180051  RH  063%=      5-min Rain = 0
KCH1 181353Z 09002KT 12/05 A2986 RMK A01 T01190051  RH  063%=      5-min Rain = 0
KCH1 181354Z 10002KT 12/05 A2986 RMK A01 T01190052  RH  063%=      5-min Rain = 0
KCH1 181355Z 10002KT 12/05 A2986 RMK A01 T01210053  RH  063%=      5-min Rain = 0
KCH1 181356Z 09002KT 12/05 A2986 RMK A01 T01220054  RH  063%=      5-min Rain = 0
KCH1 181357Z 09002KT 12/05 A2986 RMK A01 T01230053  RH  062%=      5-min Rain = 0
KCH1 181358Z 09002KT 12/05 A2986 RMK A01 T01240054  RH  062%=      5-min Rain = 0
KCH1 181359Z 09001KT 12/05 A2986 RMK A01 T01240053  RH  062%=      5-min Rain = 0
KCH1 181400Z 09002KT 13/05 A2986 RMK A01 T01250053  RH  062%=      5-min Rain = 0
KCH1 181401Z 08002KT 13/05 A2986 RMK A01 T01250053  RH  061%=      5-min Rain = 0
KCH1 181402Z 11002KT 13/05 A2986 RMK A01 T01260054  RH  062%=      5-min Rain = 0
KCH1 181403Z 13003KT 13/05 A2986 RMK A01 T01250054  RH  062%=      5-min Rain = 0
KCH1 181404Z 13003KT 13/05 A2986 RMK A01 T01270053  RH  061%=      5-min Rain = 0
KCH1 181405Z 14002KT 13/05 A2986 RMK A01 T01280054  RH  061%=      5-min Rain = 0
KCH1 181406Z 12003KT 13/06 A2986 RMK A01 T01300055  RH  060%=      5-min Rain = 0
KCH1 181407Z 14002KT 13/06 A2987 RMK A01 T01320055  RH  060%=      5-min Rain = 0
KCH1 181408Z 14003KT 13/06 A2987 RMK A01 T01340055  RH  059%=      5-min Rain = 0
KCH1 181409Z 14002KT 13/05 A2987 RMK A01 T01340054  RH  059%=      5-min Rain = 0
KCH1 181410Z 13002KT 13/06 A2987 RMK A01 T01330055  RH  059%=      5-min Rain = 0
KCH1 181411Z 13003KT 13/06 A2987 RMK A01 T01330055  RH  059%=      5-min Rain = 0
KCH1 181412Z 15004KT 13/06 A2987 RMK A01 T01340055  RH  059%=      5-min Rain = 0
KCH1 181413Z 16003KT 14/06 A2987 RMK A01 T01350055  RH  059%=      5-min Rain = 0
KCH1 181414Z 15002KT 14/06 A2987 RMK A01 T01350056  RH  059%=      5-min Rain = 0
KCH1 181415Z 15003KT 14/06 A2987 RMK A01 T01360057  RH  059%=      5-min Rain = 0
KCH1 181416Z 14003KT 14/06 A2987 RMK A01 T01370057  RH  058%=      5-min Rain = 0
KCH1 181417Z 14003KT 14/06 A2987 RMK A01 T01380059  RH  059%=      5-min Rain = 0
KCH1 181418Z 14003KT 14/06 A2987 RMK A01 T01410058  RH  058%=      5-min Rain = 0
KCH1 181419Z 14004KT 14/06 A2987 RMK A01 T01410059  RH  058%=      5-min Rain = 0
KCH1 181420Z 15003KT 14/06 A2987 RMK A01 T01410058  RH  057%=      5-min Rain = 0
KCH1 181421Z 15004KT 14/06 A2987 RMK A01 T01430061  RH  058%=      5-min Rain = 0
KCH1 181422Z 16004KT 15/06 A2987 RMK A01 T01450060  RH  057%=      5-min Rain = 0
KCH1 181423Z 15004KT 15/06 A2987 RMK A01 T01460060  RH  056%=      5-min Rain = 0
KCH1 181424Z 16004KT 15/06 A2987 RMK A01 T01460059  RH  056%=      5-min Rain = 0
KCH1 181425Z 16003KT 15/06 A2987 RMK A01 T01460059  RH  056%=      5-min Rain = 0
KCH1 181426Z 15005KT 15/06 A2987 RMK A01 T01470060  RH  056%=      5-min Rain = 0
KCH1 181427Z 16005KT 15/06 A2987 RMK A01 T01490060  RH  055%=      5-min Rain = 0
KCH1 181428Z 16004KT 15/06 A2987 RMK A01 T01490061  RH  056%=      5-min Rain = 0
KCH1 181429Z 16004KT 15/06 A2986 RMK A01 T01490060  RH  055%=      5-min Rain = 0
KCH1 181430Z 16005KT 15/06 A2986 RMK A01 T01490060  RH  055%=      5-min Rain = 0
KCH1 181431Z 17004KT 15/06 A2986 RMK A01 T01500060  RH  055%=      5-min Rain = 0
KCH1 181432Z 16004KT 15/06 A2986 RMK A01 T01510062  RH  055%=      5-min Rain = 0
KCH1 181433Z 16005KT 15/06 A2986 RMK A01 T01530061  RH  054%=      5-min Rain = 0
KCH1 181434Z 16005KT 15/06 A2986 RMK A01 T01530061  RH  054%=      5-min Rain = 0
KCH1 181435Z 15004KT 15/06 A2986 RMK A01 T01530062  RH  055%=      5-min Rain = 0
KCH1 181436Z 16004KT 15/06 A2986 RMK A01 T01530063  RH  055%=      5-min Rain = 0
KCH1 181437Z 15004KT 15/06 A2986 RMK A01 T01540062  RH  054%=      5-min Rain = 0
KCH1 181438Z 17003KT 16/06 A2986 RMK A01 T01550063  RH  054%=      5-min Rain = 0
KCH1 181439Z 16004KT 16/06 A2986 RMK A01 T01570063  RH  054%=      5-min Rain = 0
KCH1 181440Z 14004KT 16/06 A2986 RMK A01 T01580063  RH  053%=      5-min Rain = 0
KCH1 181441Z 15004KT 16/06 A2986 RMK A01 T01590062  RH  053%=      5-min Rain = 0
KCH1 181442Z 14004KT 16/06 A2986 RMK A01 T01580062  RH  053%=      5-min Rain = 0
KCH1 181443Z 15005KT 16/06 A2986 RMK A01 T01590062  RH  053%=      5-min Rain = 0
KCH1 181444Z 16005KT 16/06 A2986 RMK A01 T01600062  RH  052%=      5-min Rain = 0
KCH1 181445Z 14004KT 16/06 A2986 RMK A01 T01600062  RH  052%=      5-min Rain = 0
KCH1 181446Z 15005KT 16/06 A2986 RMK A01 T01620063  RH  052%=      5-min Rain = 0
KCH1 181447Z 15005KT 16/06 A2986 RMK A01 T01620063  RH  052%=      5-min Rain = 0
KCH1 181448Z 16004KT 16/06 A2986 RMK A01 T01620062  RH  052%=      5-min Rain = 0
KCH1 181449Z 17004KT 16/06 A2986 RMK A01 T01630063  RH  052%=      5-min Rain = 0
KCH1 181450Z 17004KT 16/06 A2986 RMK A01 T01630063  RH  051%=      5-min Rain = 0
KCH1 181451Z 15003KT 16/06 A2986 RMK A01 T01640064  RH  052%=      5-min Rain = 0
KCH1 181452Z 14004KT 17/07 A2987 RMK A01 T01650065  RH  052%=      5-min Rain = 0
KCH1 181453Z 13003KT 17/06 A2987 RMK A01 T01650064  RH  051%=      5-min Rain = 0
KCH1 181454Z 16003KT 17/07 A2987 RMK A01 T01660066  RH  051%=      5-min Rain = 0
KCH1 181455Z 18003KT 17/07 A2986 RMK A01 T01690067  RH  051%=      5-min Rain = 0
KCH1 181456Z 16004KT 17/07 A2986 RMK A01 T01700065  RH  050%=      5-min Rain = 0
KCH1 181457Z 16003KT 17/07 A2986 RMK A01 T01690065  RH  050%=      5-min Rain = 0
KCH1 181458Z 16003KT 17/07 A2986 RMK A01 T01680065  RH  051%=      5-min Rain = 0
KCH1 181459Z 17004KT 17/07 A2986 RMK A01 T01690067  RH  051%=      5-min Rain = 0
KCH1 181500Z 17004KT 17/07 A2986 RMK A01 T01710067  RH  050%=      5-min Rain = 0
KCH1 181501Z 15003KT 17/07 A2986 RMK A01 T01720067  RH  050%=      5-min Rain = 0
KCH1 181502Z 16005KT 17/07 A2986 RMK A01 T01730067  RH  050%=      5-min Rain = 0
KCH1 181503Z 17003KT 17/07 A2986 RMK A01 T01730068  RH  050%=      5-min Rain = 0
KCH1 181504Z 20003KT 17/07 A2986 RMK A01 T01740069  RH  050%=      5-min Rain = 0
KCH1 181505Z 17003KT 18/07 A2986 RMK A01 T01750068  RH  049%=      5-min Rain = 0
KCH1 181506Z 16005KT 18/07 A2986 RMK A01 T01750069  RH  050%=      5-min Rain = 0
KCH1 181507Z 16005KT 18/07 A2986 RMK A01 T01750068  RH  049%=      5-min Rain = 0
KCH1 181508Z 17004KT 18/07 A2986 RMK A01 T01750067  RH  049%=      5-min Rain = 0
KCH1 181509Z 17004KT 17/07 A2986 RMK A01 T01730068  RH  050%=      5-min Rain = 0
KCH1 181510Z 18005KT 17/07 A2986 RMK A01 T01730068  RH  050%=      5-min Rain = 0
KCH1 181511Z 17005KT 17/07 A2986 RMK A01 T01730068  RH  050%=      5-min Rain = 0
KCH1 181512Z 14005KT 17/07 A2986 RMK A01 T01740068  RH  050%=      5-min Rain = 0
KCH1 181513Z 16006KT 18/07 A2986 RMK A01 T01750068  RH  049%=      5-min Rain = 0
KCH1 181514Z 16004KT 18/07 A2986 RMK A01 T01750068  RH  050%=      5-min Rain = 0
KCH1 181515Z 15004KT 18/07 A2986 RMK A01 T01750068  RH  049%=      5-min Rain = 0
KCH1 181516Z 17003KT 18/07 A2986 RMK A01 T01770069  RH  049%=      5-min Rain = 0
KCH1 181517Z 18004KT 18/07 A2986 RMK A01 T01780070  RH  049%=      5-min Rain = 0
KCH1 181518Z 16004KT 18/07 A2986 RMK A01 T01790071  RH  049%=      5-min Rain = 0
KCH1 181519Z 15003KT 18/07 A2986 RMK A01 T01810071  RH  048%=      5-min Rain = 0
KCH1 181520Z 16005KT 18/07 A2986 RMK A01 T01820072  RH  048%=      5-min Rain = 0
KCH1 181521Z 16005KT 18/07 A2986 RMK A01 T01830072  RH  048%=      5-min Rain = 0
KCH1 181522Z 15005KT 19/07 A2986 RMK A01 T01850073  RH  048%=      5-min Rain = 0
KCH1 181523Z 16006KT 19/07 A2985 RMK A01 T01860072  RH  047%=      5-min Rain = 0
KCH1 181524Z 15005KT 19/07 A2985 RMK A01 T01860072  RH  048%=      5-min Rain = 0
KCH1 181525Z 15006KT 19/07 A2985 RMK A01 T01860073  RH  048%=      5-min Rain = 0
KCH1 181526Z 16006KT 19/07 A2985 RMK A01 T01870073  RH  048%=      5-min Rain = 0
KCH1 181527Z 17004KT 19/07 A2985 RMK A01 T01870073  RH  047%=      5-min Rain = 0
KCH1 181528Z 16004KT 19/08 A2985 RMK A01 T01870075  RH  048%=      5-min Rain = 0
KCH1 181529Z 16005KT 19/08 A2985 RMK A01 T01890076  RH  048%=      5-min Rain = 0
KCH1 181530Z 15006KT 19/08 A2985 RMK A01 T01900076  RH  048%=      5-min Rain = 0
KCH1 181531Z 15006KT 19/08 A2985 RMK A01 T01920077  RH  047%=      5-min Rain = 0
KCH1 181532Z 15006KT 19/08 A2985 RMK A01 T01930079  RH  048%=      5-min Rain = 0
KCH1 181533Z 17007KT 19/08 A2985 RMK A01 T01940080  RH  047%=      5-min Rain = 0
KCH1 181534Z 19006KT 20/08 A2985 RMK A01 T01950081  RH  048%=      5-min Rain = 0
KCH1 181535Z 20006KT 20/08 A2985 RMK A01 T01960083  RH  048%=      5-min Rain = 0
KCH1 181536Z 21006KT 20/09 A2985 RMK A01 T01960085  RH  049%=      5-min Rain = 0
KCH1 181537Z 20007KT 20/09 A2985 RMK A01 T01950085  RH  049%=      5-min Rain = 0
KCH1 181538Z 21008KT 20/09 A2985 RMK A01 T01960086  RH  049%=      5-min Rain = 0
KCH1 181539Z 19005KT 19/09 A2985 RMK A01 T01940087  RH  050%=      5-min Rain = 0
KCH1 181540Z 18005KT 19/09 A2985 RMK A01 T01940085  RH  049%=      5-min Rain = 0
KCH1 181541Z 18005KT 19/09 A2985 RMK A01 T01940085  RH  049%=      5-min Rain = 0
KCH1 181542Z 19008KT 20/09 A2985 RMK A01 T01960087  RH  049%=      5-min Rain = 0
KCH1 181543Z 20008KT 20/09 A2985 RMK A01 T01970088  RH  049%=      5-min Rain = 0
KCH1 181544Z 20006KT 20/09 A2985 RMK A01 T01960088  RH  050%=      5-min Rain = 0
KCH1 181545Z 21005KT 20/09 A2985 RMK A01 T01950087  RH  050%=      5-min Rain = 0
KCH1 181546Z 20004KT 20/09 A2985 RMK A01 T01960087  RH  049%=      5-min Rain = 0
KCH1 181547Z 23007KT 20/09 A2985 RMK A01 T01970088  RH  050%=      5-min Rain = 0
KCH1 181548Z 22007KT 20/09 A2985 RMK A01 T01980088  RH  049%=      5-min Rain = 0
KCH1 181549Z 21006KT 20/09 A2985 RMK A01 T01980088  RH  049%=      5-min Rain = 0
KCH1 181550Z 20006KT 20/09 A2985 RMK A01 T01980089  RH  050%=      5-min Rain = 0
KCH1 181551Z 21006KT 20/09 A2985 RMK A01 T02000091  RH  049%=      5-min Rain = 0
KCH1 181552Z 15005KT 20/09 A2985 RMK A01 T02010089  RH  049%=      5-min Rain = 0
KCH1 181553Z 19004KT 20/09 A2985 RMK A01 T02020089  RH  048%=      5-min Rain = 0
KCH1 181554Z 18006KT 20/09 A2985 RMK A01 T02030089  RH  048%=      5-min Rain = 0
KCH1 181555Z 17007KT 20/09 A2985 RMK A01 T02040090  RH  048%=      5-min Rain = 0
KCH1 181556Z 18007KT 20/09 A2985 RMK A01 T02030089  RH  048%=      5-min Rain = 0
KCH1 181557Z 18007KT 20/09 A2985 RMK A01 T02020090  RH  048%=      5-min Rain = 0
KCH1 181558Z 19009KT 20/09 A2985 RMK A01 T02020091  RH  049%=      5-min Rain = 0
KCH1 181559Z 19008KT 20/09 A2984 RMK A01 T02030093  RH  049%=      5-min Rain = 0
KCH1 181600Z 18009KT 20/09 A2984 RMK A01 T02030093  RH  049%=      5-min Rain = 0
KCH1 181601Z 19008KT 20/09 A2984 RMK A01 T02030093  RH  049%=      5-min Rain = 0
KCH1 181602Z 19011KT 20/09 A2984 RMK A01 T02040093  RH  049%=      5-min Rain = 0
KCH1 181603Z 21007KT 21/09 A2984 RMK A01 T02050092  RH  048%=      5-min Rain = 0
KCH1 181604Z 22009KT 20/09 A2984 RMK A01 T02040093  RH  049%=      5-min Rain = 0
KCH1 181605Z 20007KT 20/09 A2984 RMK A01 T02040094  RH  049%=      5-min Rain = 0
KCH1 181606Z 17005KT 21/09 A2984 RMK A01 T02050093  RH  049%=      5-min Rain = 0
KCH1 181607Z 20005KT 21/09 A2984 RMK A01 T02070093  RH  048%=      5-min Rain = 0
KCH1 181608Z 20006KT 21/09 A2984 RMK A01 T02080094  RH  048%=      5-min Rain = 0
KCH1 181609Z 21007KT 21/09 A2984 RMK A01 T02090094  RH  048%=      5-min Rain = 0
KCH1 181610Z 19010KT 21/10 A2984 RMK A01 T02090095  RH  048%=      5-min Rain = 0
KCH1 181611Z 19009KT 21/10 A2984 RMK A01 T02080095  RH  048%=      5-min Rain = 0
KCH1 181612Z 19009KT 21/10 A2984 RMK A01 T02080096  RH  049%=      5-min Rain = 0
KCH1 181613Z 20007KT 21/10 A2984 RMK A01 T02090096  RH  048%=      5-min Rain = 0
KCH1 181614Z 20005KT 21/10 A2984 RMK A01 T02100095  RH  048%=      5-min Rain = 0
KCH1 181615Z 19006KT 21/09 A2984 RMK A01 T02110094  RH  047%=      5-min Rain = 0
KCH1 181616Z 17008KT 21/10 A2983 RMK A01 T02100095  RH  048%=      5-min Rain = 0
KCH1 181617Z 18008KT 21/10 A2983 RMK A01 T02110096  RH  048%=      5-min Rain = 0
KCH1 181618Z 20008G13KT 21/10 A2983 RMK A01 T02110097  RH  048%=      5-min Rain = 0
KCH1 181619Z 20009KT 21/10 A2983 RMK A01 T02100099  RH  049%=      5-min Rain = 0
KCH1 181620Z 21008KT 21/10 A2983 RMK A01 T02110099  RH  049%=      5-min Rain = 0
KCH1 181621Z 20007KT 21/10 A2983 RMK A01 T02110099  RH  049%=      5-min Rain = 0
KCH1 181622Z 21007KT 21/10 A2983 RMK A01 T02110099  RH  049%=      5-min Rain = 0
KCH1 181623Z 20005KT 21/10 A2983 RMK A01 T02110099  RH  049%=      5-min Rain = 0
KCH1 181624Z 21007KT 21/10 A2983 RMK A01 T02120100  RH  049%=      5-min Rain = 0
KCH1 181625Z 20005KT 21/10 A2983 RMK A01 T02130099  RH  048%=      5-min Rain = 0
KCH1 181626Z 20004KT 22/10 A2983 RMK A01 T02160101  RH  048%=      5-min Rain = 0
KCH1 181627Z 21007KT 22/10 A2983 RMK A01 T02190101  RH  047%=      5-min Rain = 0
KCH1 181628Z 21008KT 22/10 A2983 RMK A01 T02190101  RH  047%=      5-min Rain = 0
KCH1 181629Z 19008KT 22/10 A2983 RMK A01 T02190101  RH  047%=      5-min Rain = 0
KCH1 181630Z 18008KT 22/10 A2983 RMK A01 T02190100  RH  047%=      5-min Rain = 0
KCH1 181631Z 19008KT 22/10 A2983 RMK A01 T02180101  RH  047%=      5-min Rain = 0
KCH1 181632Z 18008KT 22/10 A2983 RMK A01 T02190101  RH  047%=      5-min Rain = 0
KCH1 181633Z 19007KT 22/10 A2983 RMK A01 T02190100  RH  047%=      5-min Rain = 0
KCH1 181634Z 20005KT 22/10 A2983 RMK A01 T02180102  RH  047%=      5-min Rain = 0
KCH1 181635Z 20006KT 22/10 A2983 RMK A01 T02200102  RH  047%=      5-min Rain = 0
KCH1 181636Z 20008KT 22/10 A2983 RMK A01 T02200101  RH  047%=      5-min Rain = 0
KCH1 181637Z 20008KT 22/10 A2983 RMK A01 T02190102  RH  047%=      5-min Rain = 0
KCH1 181638Z 23006KT 22/10 A2983 RMK A01 T02180103  RH  048%=      5-min Rain = 0
KCH1 181639Z 21005KT 22/10 A2983 RMK A01 T02180102  RH  047%=      5-min Rain = 0
KCH1 181640Z 20006KT 22/10 A2983 RMK A01 T02190103  RH  048%=      5-min Rain = 0
KCH1 181641Z 18009KT 22/10 A2983 RMK A01 T02230104  RH  047%=      5-min Rain = 0
KCH1 181642Z 19008KT 22/10 A2983 RMK A01 T02240103  RH  046%=      5-min Rain = 0
KCH1 181643Z 17008KT 22/10 A2982 RMK A01 T02240103  RH  046%=      5-min Rain = 0
KCH1 181644Z 17007KT 22/10 A2982 RMK A01 T02230104  RH  047%=      5-min Rain = 0
KCH1 181645Z 17008KT 23/10 A2982 RMK A01 T02250104  RH  046%=      5-min Rain = 0
KCH1 181646Z 17007KT 23/11 A2982 RMK A01 T02280105  RH  046%=      5-min Rain = 0
KCH1 181647Z 19007KT 23/11 A2982 RMK A01 T02290105  RH  045%=      5-min Rain = 0
KCH1 181648Z 20005KT 23/11 A2982 RMK A01 T02290105  RH  046%=      5-min Rain = 0
KCH1 181649Z 19007KT 23/11 A2982 RMK A01 T02300107  RH  046%=      5-min Rain = 0
KCH1 181650Z 19009KT 23/11 A2982 RMK A01 T02320107  RH  045%=      5-min Rain = 0
KCH1 181651Z 19010KT 23/11 A2982 RMK A01 T02330106  RH  045%=      5-min Rain = 0
KCH1 181652Z 19008KT 23/11 A2982 RMK A01 T02310106  RH  045%=      5-min Rain = 0
KCH1 181653Z 20008KT 23/11 A2982 RMK A01 T02310106  RH  045%=      5-min Rain = 0
KCH1 181654Z 19009KT 23/11 A2982 RMK A01 T02300106  RH  045%=      5-min Rain = 0
KCH1 181655Z 20007KT 23/11 A2982 RMK A01 T02300105  RH  045%=      5-min Rain = 0
KCH1 181656Z 19006KT 23/11 A2982 RMK A01 T02310106  RH  045%=      5-min Rain = 0
KCH1 181657Z 19010KT 23/11 A2982 RMK A01 T02320106  RH  045%=      5-min Rain = 0
KCH1 181658Z 18006KT 23/11 A2982 RMK A01 T02320105  RH  045%=      5-min Rain = 0
KCH1 181659Z 17007KT 23/11 A2982 RMK A01 T02310106  RH  045%=      5-min Rain = 0
KCH1 181700Z 17007KT 23/11 A2982 RMK A01 T02320106  RH  045%=      5-min Rain = 0
KCH1 181701Z 17007KT 23/11 A2982 RMK A01 T02340107  RH  045%=      5-min Rain = 0
KCH1 181702Z 17007KT 24/11 A2982 RMK A01 T02360107  RH  044%=      5-min Rain = 0
KCH1 181703Z 16006KT 24/11 A2982 RMK A01 T02350108  RH  045%=      5-min Rain = 0
KCH1 181704Z 16006KT 24/11 A2982 RMK A01 T02360108  RH  044%=      5-min Rain = 0
KCH1 181705Z 18006KT 24/11 A2982 RMK A01 T02380108  RH  044%=      5-min Rain = 0
KCH1 181706Z 16005KT 24/11 A2981 RMK A01 T02400109  RH  044%=      5-min Rain = 0
KCH1 181707Z 18006KT 24/11 A2981 RMK A01 T02430109  RH  043%=      5-min Rain = 0
KCH1 181708Z 18004KT 24/11 A2981 RMK A01 T02430110  RH  043%=      5-min Rain = 0
KCH1 181709Z 15006KT 24/11 A2981 RMK A01 T02430109  RH  043%=      5-min Rain = 0
KCH1 181710Z 14007KT 24/11 A2981 RMK A01 T02430109  RH  043%=      5-min Rain = 0
KCH1 181711Z 16006KT 25/11 A2981 RMK A01 T02450110  RH  043%=      5-min Rain = 0
KCH1 181712Z 20005KT 25/11 A2981 RMK A01 T02470109  RH  042%=      5-min Rain = 0
KCH1 181713Z 20005KT 25/11 A2981 RMK A01 T02460110  RH  042%=      5-min Rain = 0
KCH1 181714Z 17005KT 24/11 A2981 RMK A01 T02430110  RH  043%=      5-min Rain = 0
KCH1 181715Z 16006KT 25/11 A2981 RMK A01 T02460111  RH  043%=      5-min Rain = 0
KCH1 181716Z 18006KT 25/11 A2981 RMK A01 T02500110  RH  042%=      5-min Rain = 0
KCH1 181717Z 15006KT 25/11 A2981 RMK A01 T02510111  RH  042%=      5-min Rain = 0
KCH1 181718Z 18006KT 25/11 A2981 RMK A01 T02520111  RH  041%=      5-min Rain = 0
KCH1 181719Z 18008KT 25/11 A2981 RMK A01 T02510110  RH  041%=      5-min Rain = 0
KCH1 181720Z 19007KT 25/11 A298 RMK A01 T02490110  RH  042%=      5-min Rain = 0
KCH1 181721Z 20007KT 25/11 A298 RMK A01 T02470112  RH  043%=      5-min Rain = 0
KCH1 181722Z 20006KT 25/11 A298 RMK A01 T02500113  RH  042%=      5-min Rain = 0
KCH1 181723Z 20005KT 25/11 A298 RMK A01 T02520113  RH  042%=      5-min Rain = 0
KCH1 181724Z 20007KT 25/11 A298 RMK A01 T02520113  RH  042%=      5-min Rain = 0
KCH1 181725Z 19007KT 25/11 A298 RMK A01 T02510112  RH  042%=      5-min Rain = 0
KCH1 181726Z 16006G12KT 25/11 A298 RMK A01 T02500113  RH  042%=      5-min Rain = 0
KCH1 181727Z 17007G12KT 25/11 A298 RMK A01 T02510113  RH  042%=      5-min Rain = 0
KCH1 181728Z 19009KT 26/12 A298 RMK A01 T02560115  RH  041%=      5-min Rain = 0
KCH1 181729Z 22007KT 26/11 A298 RMK A01 T02560114  RH  041%=      5-min Rain = 0
KCH1 181730Z 21010G16KT 26/11 A298 RMK A01 T02560114  RH  041%=      5-min Rain = 0
KCH1 181731Z 20009G14KT 25/11 A298 RMK A01 T02540112  RH  041%=      5-min Rain = 0
KCH1 181732Z 21007KT 26/11 A298 RMK A01 T02550113  RH  041%=      5-min Rain = 0
KCH1 181733Z 22006KT 26/11 A298 RMK A01 T02580112  RH  040%=      5-min Rain = 0
KCH1 181734Z 22009KT 26/11 A298 RMK A01 T02580111  RH  040%=      5-min Rain = 0
KCH1 181735Z 20007KT 25/11 A298 RMK A01 T02530109  RH  040%=      5-min Rain = 0
KCH1 181736Z 15007KT 25/11 A298 RMK A01 T02520111  RH  041%=      5-min Rain = 0
KCH1 181737Z 16006KT 25/11 A298 RMK A01 T02540112  RH  041%=      5-min Rain = 0
KCH1 181738Z 19006KT 26/11 A298 RMK A01 T02580114  RH  040%=      5-min Rain = 0
KCH1 181739Z 18006KT 26/11 A298 RMK A01 T02600113  RH  040%=      5-min Rain = 0
KCH1 181740Z 17006KT 26/11 A298 RMK A01 T02600114  RH  040%=      5-min Rain = 0
KCH1 181741Z 18009KT 26/11 A298 RMK A01 T02600112  RH  040%=      5-min Rain = 0
KCH1 181742Z 19009KT 26/11 A298 RMK A01 T02590109  RH  039%=      5-min Rain = 0
KCH1 181743Z 17009KT 26/11 A298 RMK A01 T02580109  RH  039%=      5-min Rain = 0
KCH1 181744Z 17010KT 26/11 A298 RMK A01 T02570108  RH  039%=      5-min Rain = 0
KCH1 181745Z 18007KT 26/11 A298 RMK A01 T02550109  RH  040%=      5-min Rain = 0
KCH1 181746Z 20006KT 26/11 A298 RMK A01 T02560110  RH  040%=      5-min Rain = 0
KCH1 181747Z 18007KT 26/11 A298 RMK A01 T02570111  RH  040%=      5-min Rain = 0
KCH1 181748Z 16006KT 26/11 A298 RMK A01 T02590112  RH  040%=      5-min Rain = 0
KCH1 181749Z 17008KT 26/11 A2979 RMK A01 T02630113  RH  039%=      5-min Rain = 0
KCH1 181750Z 17009KT 26/11 A2979 RMK A01 T02640111  RH  038%=      5-min Rain = 0
KCH1 181751Z 15008KT 26/11 A2979 RMK A01 T02630110  RH  038%=      5-min Rain = 0
KCH1 181752Z 15008KT 26/11 A2979 RMK A01 T02610110  RH  039%=      5-min Rain = 0
KCH1 181753Z 15007KT 26/11 A2979 RMK A01 T02610110  RH  039%=      5-min Rain = 0
KCH1 181754Z 16008KT 26/11 A2979 RMK A01 T02610109  RH  039%=      5-min Rain = 0
KCH1 181755Z 18008KT 26/11 A2979 RMK A01 T02600109  RH  039%=      5-min Rain = 0
KCH1 181756Z 18009KT 26/11 A2979 RMK A01 T02590109  RH  039%=      5-min Rain = 0
KCH1 181757Z 15010KT 26/11 A2979 RMK A01 T02590108  RH  039%=      5-min Rain = 0
KCH1 181758Z 16011KT 26/11 A2979 RMK A01 T02610106  RH  038%=      5-min Rain = 0
KCH1 181759Z 19008KT 26/11 A2979 RMK A01 T02620107  RH  038%=      5-min Rain = 0
KCH1 181800Z 20009KT 26/11 A2979 RMK A01 T02630107  RH  038%=      5-min Rain = 0
KCH1 181801Z 18009KT 26/11 A2979 RMK A01 T02620106  RH  038%=      5-min Rain = 0
KCH1 181802Z 20007KT 26/11 A2979 RMK A01 T02610106  RH  038%=      5-min Rain = 0
KCH1 181803Z 20006KT 26/11 A2979 RMK A01 T02610105  RH  038%=      5-min Rain = 0
KCH1 181804Z 18008KT 26/10 A2979 RMK A01 T02610104  RH  037%=      5-min Rain = 0
KCH1 181805Z 16012KT 26/10 A2979 RMK A01 T02630103  RH  037%=      5-min Rain = 0
KCH1 181806Z 16011KT 26/10 A2979 RMK A01 T02640104  RH  037%=      5-min Rain = 0
KCH1 181807Z 16011KT 27/10 A2978 RMK A01 T02650104  RH  036%=      5-min Rain = 0
KCH1 181808Z 17007KT 26/10 A2979 RMK A01 T02640104  RH  037%=      5-min Rain = 0
KCH1 181809Z 16007KT 26/10 A2978 RMK A01 T02620104  RH  037%=      5-min Rain = 0
KCH1 181810Z 16010KT 26/10 A2978 RMK A01 T02640104  RH  037%=      5-min Rain = 0
KCH1 181811Z 16009KT 27/11 A2978 RMK A01 T02670105  RH  036%=      5-min Rain = 0
KCH1 181812Z 16011KT 27/11 A2978 RMK A01 T02690105  RH  036%=      5-min Rain = 0
KCH1 181813Z 15010KT 27/10 A2978 RMK A01 T02670103  RH  036%=      5-min Rain = 0
KCH1 181814Z 16009KT 27/10 A2978 RMK A01 T02660104  RH  036%=      5-min Rain = 0
KCH1 181815Z 16011KT 27/10 A2978 RMK A01 T02680104  RH  036%=      5-min Rain = 0
KCH1 181816Z 15009KT 27/11 A2978 RMK A01 T02680105  RH  036%=      5-min Rain = 0
KCH1 181817Z 17007KT 27/11 A2978 RMK A01 T02700105  RH  036%=      5-min Rain = 0
KCH1 181818Z 18006KT 27/11 A2978 RMK A01 T02730108  RH  036%=      5-min Rain = 0
KCH1 181819Z 17007KT 28/11 A2978 RMK A01 T02760108  RH  035%=      5-min Rain = 0
KCH1 181820Z 18010KT 28/11 A2977 RMK A01 T02760109  RH  035%=      5-min Rain = 0
KCH1 181821Z 19010KT 27/11 A2977 RMK A01 T02740108  RH  035%=      5-min Rain = 0
KCH1 181822Z 17009KT 27/11 A2977 RMK A01 T02710106  RH  036%=      5-min Rain = 0
KCH1 181823Z 15008KT 27/11 A2977 RMK A01 T02690108  RH  036%=      5-min Rain = 0
KCH1 181824Z 16010KT 27/11 A2977 RMK A01 T02700107  RH  036%=      5-min Rain = 0
KCH1 181825Z 18009KT 27/11 A2977 RMK A01 T02710106  RH  036%=      5-min Rain = 0
KCH1 181826Z 16012KT 27/11 A2977 RMK A01 T02690106  RH  036%=      5-min Rain = 0
KCH1 181827Z 15009KT 27/11 A2977 RMK A01 T02660105  RH  036%=      5-min Rain = 0
KCH1 181828Z 16007KT 27/11 A2977 RMK A01 T02660107  RH  037%=      5-min Rain = 0
KCH1 181829Z 15007KT 27/11 A2977 RMK A01 T02690106  RH  036%=      5-min Rain = 0
KCH1 181830Z 15010KT 27/11 A2977 RMK A01 T02690107  RH  036%=      5-min Rain = 0
KCH1 181831Z 18009KT 27/11 A2976 RMK A01 T02710110  RH  037%=      5-min Rain = 0
KCH1 181832Z 17007KT 27/11 A2976 RMK A01 T02720108  RH  036%=      5-min Rain = 0
KCH1 181833Z 17005KT 27/11 A2976 RMK A01 T02690109  RH  037%=      5-min Rain = 0
KCH1 181834Z 15007G12KT 27/11 A2976 RMK A01 T02680110  RH  037%=      5-min Rain = 0
KCH1 181835Z 17010KT 27/11 A2976 RMK A01 T02700109  RH  037%=      5-min Rain = 0
KCH1 181836Z 18008KT 27/11 A2976 RMK A01 T02700107  RH  036%=      5-min Rain = 0
KCH1 181837Z 19006G11KT 27/11 A2976 RMK A01 T02710106  RH  036%=      5-min Rain = 0
KCH1 181838Z 18009KT 27/11 A2976 RMK A01 T02720106  RH  035%=      5-min Rain = 0
KCH1 181839Z 18011KT 27/11 A2976 RMK A01 T02730108  RH  036%=      5-min Rain = 0
KCH1 181840Z 19008KT 28/11 A2976 RMK A01 T02760108  RH  035%=      5-min Rain = 0
KCH1 181841Z 19011KT 28/11 A2976 RMK A01 T02750107  RH  035%=      5-min Rain = 0
KCH1 181842Z 18009KT 28/11 A2976 RMK A01 T02750107  RH  035%=      5-min Rain = 0
KCH1 181843Z 16009KT 27/11 A2976 RMK A01 T02740106  RH  035%=      5-min Rain = 0
KCH1 181844Z 18010KT 27/11 A2976 RMK A01 T02730106  RH  035%=      5-min Rain = 0
KCH1 181845Z 16009KT 27/11 A2975 RMK A01 T02710107  RH  036%=      5-min Rain = 0
KCH1 181846Z 18010KT 27/11 A2975 RMK A01 T02720108  RH  036%=      5-min Rain = 0
KCH1 181847Z 17007KT 27/11 A2975 RMK A01 T02720108  RH  036%=      5-min Rain = 0
KCH1 181848Z 16010G16KT 27/11 A2975 RMK A01 T02720108  RH  036%=      5-min Rain = 0
KCH1 181849Z 18013KT 27/11 A2975 RMK A01 T02730106  RH  035%=      5-min Rain = 0
KCH1 181850Z 18012G18KT 27/11 A2975 RMK A01 T02740106  RH  035%=      5-min Rain = 0
KCH1 181851Z 18010G16KT 27/11 A2975 RMK A01 T02730106  RH  035%=      5-min Rain = 0
KCH1 181852Z 20011KT 27/11 A2975 RMK A01 T02730107  RH  035%=      5-min Rain = 0
KCH1 181853Z 17009KT 27/11 A2975 RMK A01 T02740107  RH  035%=      5-min Rain = 0
KCH1 181854Z 14008KT 28/11 A2975 RMK A01 T02750110  RH  036%=      5-min Rain = 0
KCH1 181855Z 17007KT 28/11 A2974 RMK A01 T02780110  RH  035%=      5-min Rain = 0
KCH1 181856Z 18009G15KT 28/11 A2974 RMK A01 T02820112  RH  035%=      5-min Rain = 0
KCH1 181857Z 17012KT 28/11 A2974 RMK A01 T02820109  RH  034%=      5-min Rain = 0
KCH1 181858Z 17011KT 28/11 A2974 RMK A01 T02780109  RH  035%=      5-min Rain = 0
KCH1 181859Z 15009KT 27/11 A2974 RMK A01 T02740109  RH  036%=      5-min Rain = 0
KCH1 181900Z 15008KT 28/11 A2974 RMK A01 T02750109  RH  035%=      5-min Rain = 0
KCH1 181901Z 16010KT 28/11 A2974 RMK A01 T02770109  RH  035%=      5-min Rain = 0
KCH1 181902Z 16011KT 28/11 A2974 RMK A01 T02780109  RH  035%=      5-min Rain = 0
KCH1 181903Z 19010KT 28/11 A2974 RMK A01 T02790109  RH  035%=      5-min Rain = 0
KCH1 181904Z 19011KT 28/11 A2974 RMK A01 T02800109  RH  034%=      5-min Rain = 0
KCH1 181905Z 17010KT 28/11 A2974 RMK A01 T02790109  RH  035%=      5-min Rain = 0
KCH1 181906Z 15010KT 28/11 A2974 RMK A01 T02790110  RH  035%=      5-min Rain = 0
KCH1 181907Z 14009KT 28/11 A2974 RMK A01 T02800110  RH  035%=      5-min Rain = 0
KCH1 181908Z 16009KT 28/11 A2973 RMK A01 T02810110  RH  035%=      5-min Rain = 0
KCH1 181909Z 16007KT 28/11 A2973 RMK A01 T02790109  RH  035%=      5-min Rain = 0
KCH1 181910Z 13011KT 28/11 A2973 RMK A01 T02770109  RH  035%=      5-min Rain = 0
KCH1 181911Z 18011G17KT 28/11 A2973 RMK A01 T02790110  RH  035%=      5-min Rain = 0
KCH1 181912Z 17009KT 28/11 A2973 RMK A01 T02830111  RH  034%=      5-min Rain = 0
KCH1 181913Z 18011KT 29/11 A2973 RMK A01 T02850110  RH  034%=      5-min Rain = 0
KCH1 181914Z 17008KT 28/11 A2973 RMK A01 T02830111  RH  034%=      5-min Rain = 0
KCH1 181915Z 15012KT 28/11 A2973 RMK A01 T02830110  RH  034%=      5-min Rain = 0
KCH1 181916Z 15012KT 28/11 A2973 RMK A01 T02830109  RH  034%=      5-min Rain = 0
KCH1 181917Z 17012KT 28/11 A2973 RMK A01 T02820108  RH  034%=      5-min Rain = 0
KCH1 181918Z 17008KT 28/11 A2972 RMK A01 T02800109  RH  034%=      5-min Rain = 0
KCH1 181919Z 15010KT 28/11 A2972 RMK A01 T02820111  RH  035%=      5-min Rain = 0
KCH1 181920Z 15009KT 29/11 A2972 RMK A01 T02860111  RH  034%=      5-min Rain = 0
KCH1 181921Z 18007KT 29/11 A2972 RMK A01 T02850112  RH  034%=      5-min Rain = 0
KCH1 181922Z 16011KT 29/11 A2972 RMK A01 T02850112  RH  034%=      5-min Rain = 0
KCH1 181923Z 15011KT 29/11 A2972 RMK A01 T02860110  RH  034%=      5-min Rain = 0
KCH1 181924Z 15013KT 29/11 A2972 RMK A01 T02850110  RH  034%=      5-min Rain = 0
KCH1 181925Z 15013KT 28/11 A2972 RMK A01 T02840111  RH  034%=      5-min Rain = 0
KCH1 181926Z 17010KT 28/11 A2972 RMK A01 T02830110  RH  034%=      5-min Rain = 0
KCH1 181927Z 17007KT 28/11 A2972 RMK A01 T02830110  RH  034%=      5-min Rain = 0
KCH1 181928Z 17009G14KT 29/11 A2972 RMK A01 T02850112  RH  034%=      5-min Rain = 0
KCH1 181929Z 16012KT 29/11 A2972 RMK A01 T02850112  RH  034%=      5-min Rain = 0
KCH1 181930Z 15010KT 29/11 A2972 RMK A01 T02850112  RH  034%=      5-min Rain = 0
KCH1 181931Z 17008KT 29/11 A2972 RMK A01 T02850112  RH  034%=      5-min Rain = 0
KCH1 181932Z 17011KT 29/11 A2972 RMK A01 T02870113  RH  034%=      5-min Rain = 0
KCH1 181933Z 18012KT 29/11 A2972 RMK A01 T02880114  RH  034%=      5-min Rain = 0
KCH1 181934Z 16012KT 29/11 A2972 RMK A01 T02890113  RH  034%=      5-min Rain = 0
KCH1 181935Z 16009KT 29/11 A2972 RMK A01 T02880112  RH  034%=      5-min Rain = 0
KCH1 181936Z 19006KT 29/11 A2972 RMK A01 T02870112  RH  034%=      5-min Rain = 0
KCH1 181937Z 17005KT 29/11 A2971 RMK A01 T02880113  RH  034%=      5-min Rain = 0
KCH1 181938Z 16011KT 29/11 A2971 RMK A01 T02900114  RH  033%=      5-min Rain = 0
KCH1 181939Z 15011KT 29/11 A2971 RMK A01 T02910114  RH  033%=      5-min Rain = 0
KCH1 181940Z 15009KT 29/11 A2971 RMK A01 T02900113  RH  033%=      5-min Rain = 0
KCH1 181941Z 15007KT 29/11 A2971 RMK A01 T02900114  RH  034%=      5-min Rain = 0
KCH1 181942Z 17012KT 29/11 A2971 RMK A01 T02900114  RH  034%=      5-min Rain = 0
KCH1 181943Z 16013KT 29/11 A2971 RMK A01 T02910112  RH  033%=      5-min Rain = 0
KCH1 181944Z 15009KT 29/11 A2971 RMK A01 T02890112  RH  033%=      5-min Rain = 0
KCH1 181945Z 16009KT 29/11 A2971 RMK A01 T02910113  RH  033%=      5-min Rain = 0
KCH1 181946Z 16010KT 29/11 A2971 RMK A01 T02910112  RH  033%=      5-min Rain = 0
KCH1 181947Z 16012KT 29/11 A2971 RMK A01 T02910113  RH  033%=      5-min Rain = 0
KCH1 181948Z 18012KT 29/11 A2971 RMK A01 T02910112  RH  033%=      5-min Rain = 0
KCH1 181949Z 19010KT 29/11 A2971 RMK A01 T02870110  RH  033%=      5-min Rain = 0
KCH1 181950Z 19007KT 28/11 A2971 RMK A01 T02840109  RH  034%=      5-min Rain = 0
KCH1 181951Z 17006KT 28/11 A2971 RMK A01 T02820110  RH  034%=      5-min Rain = 0
KCH1 181952Z 18006KT 28/11 A2971 RMK A01 T02830110  RH  034%=      5-min Rain = 0
KCH1 181953Z 20008KT 29/11 A2971 RMK A01 T02870113  RH  034%=      5-min Rain = 0
KCH1 181954Z 20010KT 29/11 A2971 RMK A01 T02910114  RH  033%=      5-min Rain = 0
KCH1 181955Z 18011KT 29/11 A297 RMK A01 T02910113  RH  033%=      5-min Rain = 0
KCH1 181956Z 18008KT 29/11 A297 RMK A01 T02910111  RH  033%=      5-min Rain = 0
KCH1 181957Z 18009KT 29/11 A297 RMK A01 T02920113  RH  033%=      5-min Rain = 0
KCH1 181958Z 17011KT 29/11 A297 RMK A01 T02940112  RH  032%=      5-min Rain = 0
KCH1 181959Z 18009G14KT 29/11 A297 RMK A01 T02930111  RH  032%=      5-min Rain = 0
KCH1 182000Z 20010KT 29/11 A297 RMK A01 T02920112  RH  033%=      5-min Rain = 0
KCH1 182001Z 16006KT 29/11 A297 RMK A01 T02910114  RH  033%=      5-min Rain = 0
KCH1 182002Z 15007KT 29/11 A297 RMK A01 T02940114  RH  033%=      5-min Rain = 0
KCH1 182003Z 16007KT 30/11 A297 RMK A01 T02960114  RH  032%=      5-min Rain = 0
KCH1 182004Z 17007KT 30/12 A297 RMK A01 T02970115  RH  032%=      5-min Rain = 0
KCH1 182005Z 19011KT 30/12 A297 RMK A01 T02970115  RH  033%=      5-min Rain = 0
KCH1 182006Z 19010KT 30/11 A297 RMK A01 T02970113  RH  032%=      5-min Rain = 0
KCH1 182007Z 18006KT 30/11 A297 RMK A01 T02950114  RH  033%=      5-min Rain = 0
KCH1 182008Z 16006KT 30/12 A297 RMK A01 T02960115  RH  033%=      5-min Rain = 0
KCH1 182009Z 20006KT 30/12 A297 RMK A01 T02990115  RH  032%=      5-min Rain = 0
KCH1 182010Z 22008KT 30/12 A297 RMK A01 T03000115  RH  032%=      5-min Rain = 0
KCH1 182011Z 20005KT 30/12 A297 RMK A01 T03000116  RH  032%=      5-min Rain = 0
KCH1 182012Z 20007KT 30/12 A297 RMK A01 T03040116  RH  031%=      5-min Rain = 0
KCH1 182013Z 21007KT 31/11 A297 RMK A01 T03050114  RH  031%=      5-min Rain = 0
KCH1 182014Z 22010KT 30/11 A297 RMK A01 T03010113  RH  031%=      5-min Rain = 0
KCH1 182015Z 19011G16KT 30/11 A2969 RMK A01 T02990114  RH  032%=      5-min Rain = 0
KCH1 182016Z 17008G14KT 30/11 A297 RMK A01 T02980114  RH  032%=      5-min Rain = 0
KCH1 182017Z 18010KT 30/11 A297 RMK A01 T02970113  RH  032%=      5-min Rain = 0
KCH1 182018Z 17009KT 30/11 A2969 RMK A01 T02960112  RH  032%=      5-min Rain = 0
KCH1 182019Z 15011G16KT 30/11 A2969 RMK A01 T02960113  RH  032%=      5-min Rain = 0
KCH1 182020Z 17012G17KT 30/11 A2969 RMK A01 T02970114  RH  032%=      5-min Rain = 0
KCH1 182021Z 16011KT 30/12 A2969 RMK A01 T02980115  RH  032%=      5-min Rain = 0
KCH1 182022Z 17011KT 30/12 A2969 RMK A01 T03000115  RH  032%=      5-min Rain = 0
KCH1 182023Z 15010KT 30/11 A2969 RMK A01 T02990114  RH  032%=      5-min Rain = 0
KCH1 182024Z 15008KT 30/11 A2969 RMK A01 T02980114  RH  032%=      5-min Rain = 0
KCH1 182025Z 15007KT 30/11 A2969 RMK A01 T02980113  RH  032%=      5-min Rain = 0
KCH1 182026Z 15009KT 30/11 A2969 RMK A01 T02980114  RH  032%=      5-min Rain = 0
KCH1 182027Z 17010KT 30/12 A2969 RMK A01 T03010116  RH  032%=      5-min Rain = 0
KCH1 182028Z 21007KT 31/12 A2969 RMK A01 T03050117  RH  031%=      5-min Rain = 0
KCH1 182029Z 22006KT 31/12 A2969 RMK A01 T03070115  RH  031%=      5-min Rain = 0
KCH1 182030Z 21006KT 31/12 A2969 RMK A01 T03070115  RH  031%=      5-min Rain = 0
KCH1 182031Z 20006KT 31/11 A2969 RMK A01 T03070114  RH  030%=      5-min Rain = 0
KCH1 182032Z 19006KT 31/11 A2969 RMK A01 T03070114  RH  030%=      5-min Rain = 0
KCH1 182033Z 19011KT 31/12 A2969 RMK A01 T03080115  RH  031%=      5-min Rain = 0
KCH1 182034Z 19012KT 31/11 A2969 RMK A01 T03090114  RH  030%=      5-min Rain = 0
KCH1 182035Z 18012KT 31/11 A2969 RMK A01 T03080113  RH  030%=      5-min Rain = 0
KCH1 182036Z 18010KT 30/11 A2969 RMK A01 T03040112  RH  031%=      5-min Rain = 0
KCH1 182037Z 17008KT 30/11 A2969 RMK A01 T03020113  RH  031%=      5-min Rain = 0
KCH1 182038Z 17008KT 30/11 A2969 RMK A01 T03000112  RH  031%=      5-min Rain = 0
KCH1 182039Z 18006KT 30/11 A2969 RMK A01 T03000113  RH  032%=      5-min Rain = 0
KCH1 182040Z 18008KT 30/11 A2968 RMK A01 T03010113  RH  031%=      5-min Rain = 0
KCH1 182041Z 18010G15KT 30/11 A2968 RMK A01 T03030113  RH  031%=      5-min Rain = 0
KCH1 182042Z 19006KT 30/11 A2968 RMK A01 T03030113  RH  031%=      5-min Rain = 0
KCH1 182043Z 18006KT 30/11 A2968 RMK A01 T03030114  RH  031%=      5-min Rain = 0
KCH1 182044Z 18011KT 31/11 A2968 RMK A01 T03060114  RH  031%=      5-min Rain = 0
KCH1 182045Z 20012KT 31/11 A2968 RMK A01 T03060114  RH  031%=      5-min Rain = 0
KCH1 182046Z 20012KT 31/11 A2968 RMK A01 T03050114  RH  031%=      5-min Rain = 0
KCH1 182047Z 20008KT 30/11 A2968 RMK A01 T03020113  RH  031%=      5-min Rain = 0
KCH1 182048Z 17007KT 30/12 A2968 RMK A01 T03030115  RH  031%=      5-min Rain = 0
KCH1 182049Z 17006KT 31/12 A2968 RMK A01 T03060115  RH  031%=      5-min Rain = 0
KCH1 182050Z 16008KT 31/12 A2968 RMK A01 T03080115  RH  031%=      5-min Rain = 0
KCH1 182051Z 16010G15KT 31/12 A2968 RMK A01 T03100115  RH  030%=      5-min Rain = 0
KCH1 182052Z 20009KT 31/12 A2968 RMK A01 T03100115  RH  030%=      5-min Rain = 0
KCH1 182053Z 21010KT 31/12 A2968 RMK A01 T03070115  RH  031%=      5-min Rain = 0
KCH1 182054Z 20013KT 31/12 A2968 RMK A01 T03070115  RH  031%=      5-min Rain = 0
KCH1 182055Z 20011KT 31/11 A2968 RMK A01 T03050114  RH  031%=      5-min Rain = 0
KCH1 182056Z 19010KT 30/11 A2968 RMK A01 T03040114  RH  031%=      5-min Rain = 0
KCH1 182057Z 18009G14KT 30/11 A2968 RMK A01 T03040114  RH  031%=      5-min Rain = 0
KCH1 182058Z 19010KT 30/11 A2968 RMK A01 T03030114  RH  031%=      5-min Rain = 0
KCH1 182059Z 21010KT 30/11 A2968 RMK A01 T03030114  RH  031%=      5-min Rain = 0
KCH1 182100Z 20011KT 30/12 A2968 RMK A01 T03040115  RH  031%=      5-min Rain = 0
KCH1 182101Z 22010KT 31/12 A2968 RMK A01 T03050115  RH  031%=      5-min Rain = 0
KCH1 182102Z 21009KT 31/12 A2968 RMK A01 T03050115  RH  031%=      5-min Rain = 0
KCH1 182103Z 19009KT 30/12 A2968 RMK A01 T03040115  RH  031%=      5-min Rain = 0
KCH1 182104Z 19008KT 30/11 A2968 RMK A01 T03040114  RH  031%=      5-min Rain = 0
KCH1 182105Z 19008KT 31/12 A2968 RMK A01 T03060115  RH  031%=      5-min Rain = 0
KCH1 182106Z 17011KT 31/12 A2967 RMK A01 T03070115  RH  031%=      5-min Rain = 0
KCH1 182107Z 18008KT 31/11 A2968 RMK A01 T03070114  RH  031%=      5-min Rain = 0
KCH1 182108Z 18011G16KT 31/12 A2967 RMK A01 T03070115  RH  031%=      5-min Rain = 0
KCH1 182109Z 17011KT 31/12 A2968 RMK A01 T03080115  RH  030%=      5-min Rain = 0
KCH1 182110Z 17012G17KT 31/11 A2967 RMK A01 T03070114  RH  031%=      5-min Rain = 0
KCH1 182111Z 18012G17KT 31/11 A2967 RMK A01 T03050114  RH  031%=      5-min Rain = 0
KCH1 182112Z 22005KT 30/12 A2968 RMK A01 T03040115  RH  031%=      5-min Rain = 0
KCH1 182113Z 22010KT 31/12 A2967 RMK A01 T03060117  RH  031%=      5-min Rain = 0
KCH1 182114Z 22010G17KT 31/12 A2967 RMK A01 T03070116  RH  031%=      5-min Rain = 0
KCH1 182115Z 21010G17KT 30/12 A2967 RMK A01 T03040116  RH  031%=      5-min Rain = 0
KCH1 182116Z 21008KT 30/12 A2968 RMK A01 T03040116  RH  031%=      5-min Rain = 0
KCH1 182117Z 20008KT 31/12 A2968 RMK A01 T03050116  RH  031%=      5-min Rain = 0
KCH1 182118Z 17007KT 31/12 A2968 RMK A01 T03050116  RH  031%=      5-min Rain = 0
KCH1 182119Z 17011KT 31/12 A2968 RMK A01 T03070116  RH  031%=      5-min Rain = 0
KCH1 182120Z 19009KT 31/12 A2968 RMK A01 T03070116  RH  031%=      5-min Rain = 0
KCH1 182121Z 19009KT 31/12 A2968 RMK A01 T03090117  RH  031%=      5-min Rain = 0
KCH1 182122Z 20010KT 31/12 A2968 RMK A01 T03090117  RH  031%=      5-min Rain = 0
KCH1 182123Z 21007KT 31/12 A2968 RMK A01 T03090116  RH  031%=      5-min Rain = 0
KCH1 182124Z 23009KT 31/12 A2968 RMK A01 T03100117  RH  031%=      5-min Rain = 0
KCH1 182125Z 23008KT 31/12 A2968 RMK A01 T03100116  RH  030%=      5-min Rain = 0
KCH1 182126Z 20008KT 31/12 A2968 RMK A01 T03090117  RH  031%=      5-min Rain = 0
KCH1 182127Z 21009KT 31/12 A2968 RMK A01 T03090117  RH  031%=      5-min Rain = 0
KCH1 182128Z 21010KT 31/12 A2968 RMK A01 T03080116  RH  031%=      5-min Rain = 0
KCH1 182129Z 20008KT 30/12 A2968 RMK A01 T03040116  RH  031%=      5-min Rain = 0
KCH1 182130Z 20008G13KT 30/12 A2968 RMK A01 T03030116  RH  032%=      5-min Rain = 0
KCH1 182131Z 20010KT 30/12 A2968 RMK A01 T03030116  RH  032%=      5-min Rain = 0
KCH1 182132Z 20009G14KT 30/12 A2968 RMK A01 T03020116  RH  032%=      5-min Rain = 0
KCH1 182133Z 19009KT 30/12 A2968 RMK A01 T03010116  RH  032%=      5-min Rain = 0
KCH1 182134Z 19009KT 30/12 A2968 RMK A01 T03000116  RH  032%=      5-min Rain = 0
KCH1 182135Z 19007KT 30/12 A2968 RMK A01 T02990116  RH  032%=      5-min Rain = 0
KCH1 182136Z 19007KT 30/12 A2968 RMK A01 T03000115  RH  032%=      5-min Rain = 0
KCH1 182137Z 20008KT 30/12 A2968 RMK A01 T03010116  RH  032%=      5-min Rain = 0
KCH1 182138Z 22007KT 30/12 A2968 RMK A01 T03010115  RH  032%=      5-min Rain = 0
KCH1 182139Z 19008G13KT 30/12 A2968 RMK A01 T03010117  RH  032%=      5-min Rain = 0
KCH1 182140Z 21010KT 30/12 A2968 RMK A01 T03030117  RH  032%=      5-min Rain = 0
KCH1 182141Z 19011KT 30/12 A2968 RMK A01 T03030116  RH  032%=      5-min Rain = 0
KCH1 182142Z 20011KT 30/12 A2967 RMK A01 T03040116  RH  031%=      5-min Rain = 0
KCH1 182143Z 20009G14KT 30/12 A2967 RMK A01 T03040116  RH  031%=      5-min Rain = 0
KCH1 182144Z 21009KT 30/12 A2967 RMK A01 T03040116  RH  032%=      5-min Rain = 0
KCH1 182145Z 19010KT 31/12 A2967 RMK A01 T03050117  RH  031%=      5-min Rain = 0
KCH1 182146Z 19011KT 31/12 A2967 RMK A01 T03060117  RH  031%=      5-min Rain = 0
KCH1 182147Z 19009KT 31/12 A2967 RMK A01 T03060117  RH  031%=      5-min Rain = 0
KCH1 182148Z 19007KT 31/12 A2967 RMK A01 T03060117  RH  031%=      5-min Rain = 0
KCH1 182149Z 17008KT 31/12 A2967 RMK A01 T03060117  RH  031%=      5-min Rain = 0
KCH1 182150Z 19009KT 31/12 A2967 RMK A01 T03070117  RH  031%=      5-min Rain = 0
KCH1 182151Z 18010KT 31/12 A2967 RMK A01 T03070117  RH  031%=      5-min Rain = 0
KCH1 182152Z 19009KT 31/12 A2967 RMK A01 T03070117  RH  031%=      5-min Rain = 0
KCH1 182153Z 20011KT 31/12 A2967 RMK A01 T03070117  RH  031%=      5-min Rain = 0
KCH1 182154Z 18011KT 31/12 A2967 RMK A01 T03080117  RH  031%=      5-min Rain = 0
KCH1 182155Z 18010KT 31/12 A2967 RMK A01 T03080117  RH  031%=      5-min Rain = 0
KCH1 182156Z 18009KT 31/12 A2967 RMK A01 T03060116  RH  031%=      5-min Rain = 0
KCH1 182157Z 20009KT 31/12 A2967 RMK A01 T03060117  RH  031%=      5-min Rain = 0
KCH1 182158Z 19009G14KT 31/12 A2967 RMK A01 T03060117  RH  031%=      5-min Rain = 0
KCH1 182159Z 19012KT 31/12 A2967 RMK A01 T03070118  RH  031%=      5-min Rain = 0
KCH1 182200Z 20010KT 31/12 A2967 RMK A01 T03060118  RH  031%=      5-min Rain = 0
KCH1 182201Z 18011KT 31/12 A2967 RMK A01 T03050117  RH  031%=      5-min Rain = 0
KCH1 182202Z 19010KT 31/12 A2967 RMK A01 T03050117  RH  032%=      5-min Rain = 0
KCH1 182203Z 19009KT 31/12 A2967 RMK A01 T03050117  RH  032%=      5-min Rain = 0
KCH1 182204Z 20008KT 31/12 A2967 RMK A01 T03050118  RH  032%=      5-min Rain = 0
KCH1 182205Z 19010KT 31/12 A2967 RMK A01 T03060120  RH  032%=      5-min Rain = 0
KCH1 182206Z 20012KT 31/12 A2967 RMK A01 T03070119  RH  031%=      5-min Rain = 0
KCH1 182207Z 20012KT 31/12 A2967 RMK A01 T03070118  RH  031%=      5-min Rain = 0
KCH1 182208Z 18007KT 31/12 A2967 RMK A01 T03060119  RH  032%=      5-min Rain = 0
KCH1 182209Z 18009KT 31/12 A2967 RMK A01 T03080119  RH  031%=      5-min Rain = 0
KCH1 182210Z 18009KT 31/12 A2967 RMK A01 T03080119  RH  031%=      5-min Rain = 0
KCH1 182211Z 18008KT 31/12 A2967 RMK A01 T03080119  RH  031%=      5-min Rain = 0
KCH1 182212Z 19011KT 31/12 A2967 RMK A01 T03080119  RH  031%=      5-min Rain = 0
KCH1 182213Z 20010KT 31/12 A2967 RMK A01 T03060119  RH  032%=      5-min Rain = 0
KCH1 182214Z 18010KT 30/12 A2967 RMK A01 T03030119  RH  032%=      5-min Rain = 0
KCH1 182215Z 20009KT 30/12 A2967 RMK A01 T03020120  RH  033%=      5-min Rain = 0
KCH1 182216Z 20010KT 30/12 A2967 RMK A01 T03020121  RH  033%=      5-min Rain = 0
KCH1 182217Z 18011KT 30/12 A2967 RMK A01 T03040121  RH  032%=      5-min Rain = 0
KCH1 182218Z 19011KT 30/12 A2967 RMK A01 T03040121  RH  033%=      5-min Rain = 0
KCH1 182219Z 19010KT 30/12 A2967 RMK A01 T03040122  RH  033%=      5-min Rain = 0
KCH1 182220Z 19009KT 30/12 A2967 RMK A01 T03040122  RH  033%=      5-min Rain = 0
KCH1 182221Z 19008KT 30/12 A2967 RMK A01 T03020122  RH  033%=      5-min Rain = 0
KCH1 182222Z 18008G13KT 30/12 A2967 RMK A01 T03010122  RH  033%=      5-min Rain = 0
KCH1 182223Z 18010KT 30/12 A2967 RMK A01 T03010121  RH  033%=      5-min Rain = 0
KCH1 182224Z 18010KT 30/12 A2967 RMK A01 T03010121  RH  033%=      5-min Rain = 0
KCH1 182225Z 19009KT 30/12 A2967 RMK A01 T03020122  RH  033%=      5-min Rain = 0
KCH1 182226Z 17009KT 30/12 A2967 RMK A01 T03030122  RH  033%=      5-min Rain = 0
KCH1 182227Z 18010KT 30/12 A2967 RMK A01 T03040121  RH  033%=      5-min Rain = 0
KCH1 182228Z 19009KT 30/12 A2967 RMK A01 T03040122  RH  033%=      5-min Rain = 0
KCH1 182229Z 18012KT 30/12 A2967 RMK A01 T03040123  RH  033%=      5-min Rain = 0
KCH1 182230Z 18011KT 30/12 A2967 RMK A01 T03030122  RH  033%=      5-min Rain = 0
KCH1 182231Z 18011KT 30/12 A2967 RMK A01 T03030123  RH  033%=      5-min Rain = 0
KCH1 182232Z 17011KT 30/12 A2967 RMK A01 T03030122  RH  033%=      5-min Rain = 0
KCH1 182233Z 18008KT 30/12 A2967 RMK A01 T03030123  RH  033%=      5-min Rain = 0
KCH1 182234Z 16010KT 30/12 A2967 RMK A01 T03030123  RH  033%=      5-min Rain = 0
KCH1 182235Z 17010KT 30/12 A2967 RMK A01 T03030123  RH  033%=      5-min Rain = 0
KCH1 182236Z 18009KT 30/12 A2967 RMK A01 T03040124  RH  033%=      5-min Rain = 0
KCH1 182237Z 17009KT 30/12 A2967 RMK A01 T03040123  RH  033%=      5-min Rain = 0
KCH1 182238Z 19011KT 30/12 A2967 RMK A01 T03030124  RH  033%=      5-min Rain = 0
KCH1 182239Z 19013KT 30/12 A2966 RMK A01 T03020124  RH  033%=      5-min Rain = 0
KCH1 182240Z 19013KT 30/12 A2967 RMK A01 T03020124  RH  034%=      5-min Rain = 0
KCH1 182241Z 18013KT 30/12 A2966 RMK A01 T03020124  RH  034%=      5-min Rain = 0
KCH1 182242Z 18011KT 30/12 A2967 RMK A01 T03010124  RH  034%=      5-min Rain = 0
KCH1 182243Z 18010KT 30/13 A2967 RMK A01 T03010125  RH  034%=      5-min Rain = 0
KCH1 182244Z 18009KT 30/13 A2967 RMK A01 T03020126  RH  034%=      5-min Rain = 0
KCH1 182245Z 19007KT 30/13 A2967 RMK A01 T03020126  RH  034%=      5-min Rain = 0
KCH1 182246Z 18007KT 30/13 A2967 RMK A01 T03030127  RH  034%=      5-min Rain = 0
KCH1 182247Z 19008KT 30/13 A2967 RMK A01 T03030127  RH  034%=      5-min Rain = 0
KCH1 182248Z 18007G12KT 30/13 A2967 RMK A01 T03030127  RH  034%=      5-min Rain = 0
KCH1 182249Z 19010KT 30/13 A2967 RMK A01 T03030127  RH  034%=      5-min Rain = 0
KCH1 182250Z 19011KT 30/13 A2967 RMK A01 T03030128  RH  034%=      5-min Rain = 0
KCH1 182251Z 19008KT 30/13 A2967 RMK A01 T03030128  RH  034%=      5-min Rain = 0
KCH1 182252Z 19011G18KT 30/13 A2967 RMK A01 T03020129  RH  035%=      5-min Rain = 0
KCH1 182253Z 20010KT 30/13 A2967 RMK A01 T03020129  RH  035%=      5-min Rain = 0
KCH1 182254Z 19010G15KT 30/13 A2967 RMK A01 T03020130  RH  035%=      5-min Rain = 0
KCH1 182255Z 17008KT 30/13 A2967 RMK A01 T03010130  RH  035%=      5-min Rain = 0
KCH1 182256Z 19010KT 30/13 A2967 RMK A01 T03020129  RH  035%=      5-min Rain = 0
KCH1 182257Z 19010KT 30/13 A2967 RMK A01 T03020129  RH  035%=      5-min Rain = 0
KCH1 182258Z 18009KT 30/13 A2967 RMK A01 T03010129  RH  035%=      5-min Rain = 0
KCH1 182259Z 17009KT 30/13 A2967 RMK A01 T03010129  RH  035%=      5-min Rain = 0
KCH1 182300Z 17010G15KT 30/13 A2967 RMK A01 T03010129  RH  035%=      5-min Rain = 0
KCH1 182301Z 18010KT 30/13 A2966 RMK A01 T03010129  RH  035%=      5-min Rain = 0
KCH1 182302Z 17009KT 30/13 A2966 RMK A01 T03000129  RH  035%=      5-min Rain = 0
KCH1 182303Z 17009KT 30/13 A2966 RMK A01 T03000129  RH  035%=      5-min Rain = 0
KCH1 182304Z 17008KT 30/13 A2966 RMK A01 T03000129  RH  035%=      5-min Rain = 0
KCH1 182305Z 18008KT 30/13 A2966 RMK A01 T02990128  RH  035%=      5-min Rain = 0
KCH1 182306Z 18007KT 30/13 A2966 RMK A01 T02990129  RH  035%=      5-min Rain = 0
KCH1 182307Z 18008KT 30/13 A2966 RMK A01 T02990129  RH  035%=      5-min Rain = 0
KCH1 182308Z 18008KT 30/13 A2966 RMK A01 T02990129  RH  035%=      5-min Rain = 0
KCH1 182309Z 19010KT 30/13 A2966 RMK A01 T02990129  RH  035%=      5-min Rain = 0
KCH1 182310Z 19009KT 30/13 A2966 RMK A01 T02990130  RH  035%=      5-min Rain = 0
KCH1 182311Z 18008KT 30/13 A2966 RMK A01 T02990130  RH  036%=      5-min Rain = 0
KCH1 182312Z 18010KT 30/13 A2966 RMK A01 T02990131  RH  036%=      5-min Rain = 0
KCH1 182313Z 18008KT 30/13 A2966 RMK A01 T02990131  RH  036%=      5-min Rain = 0
KCH1 182314Z 19009KT 30/13 A2966 RMK A01 T02990131  RH  036%=      5-min Rain = 0
KCH1 182315Z 19012KT 30/13 A2966 RMK A01 T02980132  RH  036%=      5-min Rain = 0
KCH1 182316Z 19010G15KT 30/13 A2966 RMK A01 T02980132  RH  036%=      5-min Rain = 0
KCH1 182317Z 19010KT 30/13 A2966 RMK A01 T02980132  RH  036%=      5-min Rain = 0
KCH1 182318Z 20009KT 30/13 A2966 RMK A01 T02970132  RH  036%=      5-min Rain = 0
KCH1 182319Z 20011KT 30/13 A2966 RMK A01 T02970132  RH  036%=      5-min Rain = 0
KCH1 182320Z 20009KT 30/13 A2966 RMK A01 T02960132  RH  037%=      5-min Rain = 0
KCH1 182321Z 19011KT 30/13 A2966 RMK A01 T02960132  RH  037%=      5-min Rain = 0
KCH1 182322Z 19008KT 30/13 A2966 RMK A01 T02960132  RH  037%=      5-min Rain = 0
KCH1 182323Z 18009KT 30/13 A2966 RMK A01 T02950133  RH  037%=      5-min Rain = 0
KCH1 182324Z 18009KT 30/13 A2966 RMK A01 T02950132  RH  037%=      5-min Rain = 0
KCH1 182325Z 19009KT 30/13 A2966 RMK A01 T02950132  RH  037%=      5-min Rain = 0
KCH1 182326Z 19008KT 29/13 A2966 RMK A01 T02940132  RH  037%=      5-min Rain = 0
KCH1 182327Z 19009KT 29/13 A2966 RMK A01 T02940133  RH  037%=      5-min Rain = 0
KCH1 182328Z 20007KT 29/13 A2966 RMK A01 T02940133  RH  037%=      5-min Rain = 0
KCH1 182329Z 19007KT 29/13 A2966 RMK A01 T02930133  RH  037%=      5-min Rain = 0
KCH1 182330Z 18006G11KT 29/13 A2966 RMK A01 T02930133  RH  037%=      5-min Rain = 0
KCH1 182331Z 19008KT 29/13 A2966 RMK A01 T02930133  RH  038%=      5-min Rain = 0
KCH1 182332Z 19007KT 29/13 A2966 RMK A01 T02920133  RH  038%=      5-min Rain = 0
KCH1 182333Z 19006KT 29/13 A2966 RMK A01 T02910134  RH  038%=      5-min Rain = 0
KCH1 182334Z 19007KT 29/13 A2966 RMK A01 T02910134  RH  038%=      5-min Rain = 0
KCH1 182335Z 19011KT 29/13 A2966 RMK A01 T02900133  RH  038%=      5-min Rain = 0
KCH1 182336Z 19010KT 29/13 A2966 RMK A01 T02900134  RH  038%=      5-min Rain = 0
KCH1 182337Z 19007KT 29/13 A2966 RMK A01 T02890134  RH  038%=      5-min Rain = 0
KCH1 182338Z 19006KT 29/13 A2966 RMK A01 T02890134  RH  039%=      5-min Rain = 0
KCH1 182339Z 19005KT 29/13 A2966 RMK A01 T02880134  RH  039%=      5-min Rain = 0
KCH1 182340Z 19006KT 29/13 A2966 RMK A01 T02860133  RH  039%=      5-min Rain = 0
KCH1 182341Z 19008KT 29/13 A2966 RMK A01 T02860134  RH  039%=      5-min Rain = 0
KCH1 182342Z 19007KT 29/13 A2966 RMK A01 T02860133  RH  039%=      5-min Rain = 0
KCH1 182343Z 18007KT 29/13 A2966 RMK A01 T02860134  RH  039%=      5-min Rain = 0
KCH1 182344Z 19008KT 29/13 A2966 RMK A01 T02850134  RH  039%=      5-min Rain = 0
KCH1 182345Z 18007KT 28/13 A2966 RMK A01 T02840134  RH  040%=      5-min Rain = 0
KCH1 182346Z 18007KT 28/13 A2966 RMK A01 T02840134  RH  040%=      5-min Rain = 0
KCH1 182347Z 18009KT 28/13 A2966 RMK A01 T02840134  RH  040%=      5-min Rain = 0
KCH1 182348Z 18007KT 28/13 A2966 RMK A01 T02840134  RH  040%=      5-min Rain = 0
KCH1 182349Z 18008KT 28/13 A2966 RMK A01 T02830134  RH  040%=      5-min Rain = 0
KCH1 182350Z 17006KT 28/13 A2966 RMK A01 T02830134  RH  040%=      5-min Rain = 0
KCH1 182351Z 18008G13KT 28/13 A2966 RMK A01 T02830134  RH  040%=      5-min Rain = 0
KCH1 182352Z 17008KT 28/13 A2966 RMK A01 T02820134  RH  040%=      5-min Rain = 0
KCH1 182353Z 18007KT 28/13 A2966 RMK A01 T02820134  RH  040%=      5-min Rain = 0
KCH1 182354Z 17008KT 28/13 A2966 RMK A01 T02810134  RH  040%=      5-min Rain = 0
KCH1 182355Z 17008KT 28/13 A2966 RMK A01 T02800134  RH  040%=      5-min Rain = 0
KCH1 182356Z 17007KT 28/13 A2966 RMK A01 T02800134  RH  040%=      5-min Rain = 0
KCH1 182357Z 17007KT 28/13 A2966 RMK A01 T02800134  RH  041%=      5-min Rain = 0
KCH1 182358Z 17007KT 28/13 A2966 RMK A01 T02790134  RH  041%=      5-min Rain = 0
KCH1 182359Z 18007KT 28/13 A2966 RMK A01 T02790134  RH  041%=      5-min Rain = 0
KCH1 190000Z 17007KT 28/13 A2966 RMK A01 T02790134  RH  041%=      5-min Rain = 0
KCH1 190001Z 17008KT 28/13 A2966 RMK A01 T02780134  RH  041%=      5-min Rain = 0
KCH1 190002Z 18007KT 28/13 A2966 RMK A01 T02780134  RH  041%=      5-min Rain = 0
KCH1 190003Z 18007KT 28/13 A2966 RMK A01 T02780134  RH  041%=      5-min Rain = 0
KCH1 190004Z 18008KT 28/13 A2966 RMK A01 T02770134  RH  041%=      5-min Rain = 0
KCH1 190005Z 17008KT 28/13 A2966 RMK A01 T02780134  RH  041%=      5-min Rain = 0
KCH1 190006Z 18008KT 28/13 A2966 RMK A01 T02770134  RH  041%=      5-min Rain = 0
KCH1 190007Z 17006KT 28/13 A2966 RMK A01 T02770134  RH  041%=      5-min Rain = 0
KCH1 190008Z 18007KT 28/13 A2966 RMK A01 T02760134  RH  042%=      5-min Rain = 0
KCH1 190009Z 18007KT 28/13 A2966 RMK A01 T02750134  RH  042%=      5-min Rain = 0
KCH1 190010Z 18008KT 28/13 A2966 RMK A01 T02750134  RH  042%=      5-min Rain = 0
KCH1 190011Z 18008KT 28/14 A2966 RMK A01 T02750135  RH  042%=      5-min Rain = 0
KCH1 190012Z 18007KT 27/13 A2966 RMK A01 T02740134  RH  042%=      5-min Rain = 0
KCH1 190013Z 18008KT 27/13 A2966 RMK A01 T02740134  RH  042%=      5-min Rain = 0
KCH1 190014Z 17007KT 27/14 A2966 RMK A01 T02740135  RH  042%=      5-min Rain = 0
KCH1 190015Z 17007KT 27/13 A2966 RMK A01 T02730134  RH  042%=      5-min Rain = 0
KCH1 190016Z 18008KT 27/14 A2966 RMK A01 T02730135  RH  043%=      5-min Rain = 0
KCH1 190017Z 17008KT 27/13 A2966 RMK A01 T02720134  RH  043%=      5-min Rain = 0
KCH1 190018Z 18008KT 27/14 A2966 RMK A01 T02720135  RH  043%=      5-min Rain = 0
KCH1 190019Z 18007KT 27/14 A2967 RMK A01 T02720135  RH  043%=      5-min Rain = 0
KCH1 190020Z 18007KT 27/14 A2966 RMK A01 T02720135  RH  043%=      5-min Rain = 0
KCH1 190021Z 18007KT 27/14 A2967 RMK A01 T02710135  RH  043%=      5-min Rain = 0
KCH1 190022Z 18007KT 27/14 A2966 RMK A01 T02700135  RH  043%=      5-min Rain = 0
KCH1 190023Z 18007KT 27/14 A2967 RMK A01 T02700135  RH  043%=      5-min Rain = 0
KCH1 190024Z 17007KT 27/14 A2966 RMK A01 T02690135  RH  044%=      5-min Rain = 0
KCH1 190025Z 18007KT 27/14 A2966 RMK A01 T02690135  RH  044%=      5-min Rain = 0
KCH1 190026Z 17008KT 27/14 A2966 RMK A01 T02690135  RH  044%=      5-min Rain = 0
KCH1 190027Z 17008KT 27/14 A2966 RMK A01 T02690135  RH  044%=      5-min Rain = 0
KCH1 190028Z 18007KT 27/14 A2966 RMK A01 T02690135  RH  044%=      5-min Rain = 0
KCH1 190029Z 17008KT 27/14 A2966 RMK A01 T02690135  RH  044%=      5-min Rain = 0
KCH1 190030Z 17006KT 27/14 A2966 RMK A01 T02680135  RH  044%=      5-min Rain = 0
KCH1 190031Z 17006KT 27/14 A2967 RMK A01 T02680135  RH  044%=      5-min Rain = 0
KCH1 190032Z 18006KT 27/14 A2966 RMK A01 T02670135  RH  044%=      5-min Rain = 0
KCH1 190033Z 18006KT 27/14 A2966 RMK A01 T02670135  RH  044%=      5-min Rain = 0
KCH1 190034Z 17007KT 27/14 A2966 RMK A01 T02660135  RH  044%=      5-min Rain = 0
KCH1 190035Z 17006KT 27/14 A2966 RMK A01 T02660135  RH  044%=      5-min Rain = 0
KCH1 190036Z 18006KT 27/14 A2966 RMK A01 T02660135  RH  044%=      5-min Rain = 0
KCH1 190037Z 17006KT 27/14 A2966 RMK A01 T02660135  RH  044%=      5-min Rain = 0
KCH1 190038Z 17007KT 27/14 A2967 RMK A01 T02660136  RH  044%=      5-min Rain = 0
KCH1 190039Z 17006KT 27/14 A2967 RMK A01 T02660135  RH  044%=      5-min Rain = 0
KCH1 190040Z 17007KT 27/14 A2967 RMK A01 T02660136  RH  045%=      5-min Rain = 0
KCH1 190041Z 17006KT 27/14 A2967 RMK A01 T02650136  RH  045%=      5-min Rain = 0
KCH1 190042Z 17006KT 27/14 A2967 RMK A01 T02650135  RH  045%=      5-min Rain = 0
KCH1 190043Z 17006KT 26/14 A2967 RMK A01 T02640136  RH  045%=      5-min Rain = 0
KCH1 190044Z 17007KT 26/14 A2967 RMK A01 T02630136  RH  045%=      5-min Rain = 0
KCH1 190045Z 17005KT 26/14 A2967 RMK A01 T02630135  RH  045%=      5-min Rain = 0
KCH1 190046Z 17006KT 26/14 A2967 RMK A01 T02630136  RH  045%=      5-min Rain = 0
KCH1 190047Z 17006KT 26/14 A2967 RMK A01 T02630136  RH  045%=      5-min Rain = 0
KCH1 190048Z 17007KT 26/14 A2967 RMK A01 T02620135  RH  046%=      5-min Rain = 0
KCH1 190049Z 17006KT 26/14 A2967 RMK A01 T02620136  RH  046%=      5-min Rain = 0
KCH1 190050Z 18007KT 26/14 A2967 RMK A01 T02620136  RH  046%=      5-min Rain = 0
KCH1 190051Z 17006KT 26/14 A2967 RMK A01 T02620136  RH  046%=      5-min Rain = 0
KCH1 190052Z 17006KT 26/14 A2967 RMK A01 T02610136  RH  046%=      5-min Rain = 0
KCH1 190053Z 17006KT 26/14 A2967 RMK A01 T02600135  RH  046%=      5-min Rain = 0
KCH1 190054Z 17005KT 26/14 A2967 RMK A01 T02600136  RH  046%=      5-min Rain = 0
KCH1 190055Z 18006KT 26/14 A2967 RMK A01 T02600136  RH  046%=      5-min Rain = 0
KCH1 190056Z 18006KT 26/14 A2967 RMK A01 T02600136  RH  046%=      5-min Rain = 0
KCH1 190057Z 18007KT 26/14 A2967 RMK A01 T02600136  RH  046%=      5-min Rain = 0
KCH1 190058Z 18005KT 26/14 A2967 RMK A01 T02590136  RH  046%=      5-min Rain = 0
KCH1 190059Z 17006KT 26/14 A2967 RMK A01 T02590136  RH  046%=      5-min Rain = 0
KCH1 190100Z 18005KT 26/14 A2967 RMK A01 T02580135  RH  047%=      5-min Rain = 0
KCH1 190101Z 18006KT 26/14 A2967 RMK A01 T02580136  RH  047%=      5-min Rain = 0
KCH1 190102Z 18005KT 26/14 A2967 RMK A01 T02570135  RH  047%=      5-min Rain = 0
KCH1 190103Z 18007KT 26/14 A2967 RMK A01 T02560135  RH  047%=      5-min Rain = 0
KCH1 190104Z 18007KT 26/14 A2967 RMK A01 T02560135  RH  047%=      5-min Rain = 0
KCH1 190105Z 18007KT 26/14 A2967 RMK A01 T02560135  RH  047%=      5-min Rain = 0
KCH1 190106Z 17007KT 26/14 A2967 RMK A01 T02570136  RH  047%=      5-min Rain = 0
KCH1 190107Z 18008KT 26/14 A2967 RMK A01 T02560135  RH  047%=      5-min Rain = 0
KCH1 190108Z 18007KT 26/14 A2967 RMK A01 T02570136  RH  047%=      5-min Rain = 0
KCH1 190109Z 18007KT 26/14 A2967 RMK A01 T02580135  RH  047%=      5-min Rain = 0
KCH1 190110Z 18009KT 26/14 A2967 RMK A01 T02580135  RH  047%=      5-min Rain = 0
KCH1 190111Z 18007KT 26/14 A2967 RMK A01 T02590136  RH  047%=      5-min Rain = 0
KCH1 190112Z 18008KT 26/14 A2967 RMK A01 T02590136  RH  047%=      5-min Rain = 0
KCH1 190113Z 18007KT 26/14 A2967 RMK A01 T02580136  RH  047%=      5-min Rain = 0
KCH1 190114Z 18007KT 26/14 A2968 RMK A01 T02590136  RH  047%=      5-min Rain = 0
KCH1 190115Z 18007KT 26/14 A2968 RMK A01 T02580136  RH  047%=      5-min Rain = 0
KCH1 190116Z 18008KT 26/14 A2968 RMK A01 T02580136  RH  047%=      5-min Rain = 0
KCH1 190117Z 18010KT 26/14 A2968 RMK A01 T02570136  RH  047%=      5-min Rain = 0
KCH1 190118Z 18008KT 26/14 A2968 RMK A01 T02570136  RH  047%=      5-min Rain = 0
KCH1 190119Z 18007KT 26/14 A2968 RMK A01 T02570136  RH  047%=      5-min Rain = 0
KCH1 190120Z 18007KT 26/14 A2968 RMK A01 T02570136  RH  047%=      5-min Rain = 0
KCH1 190121Z 18008KT 26/14 A2968 RMK A01 T02580136  RH  047%=      5-min Rain = 0
KCH1 190122Z 18008KT 26/14 A2968 RMK A01 T02580136  RH  047%=      5-min Rain = 0
KCH1 190123Z 18007KT 26/14 A2968 RMK A01 T02580136  RH  047%=      5-min Rain = 0
KCH1 190124Z 18008KT 26/14 A2968 RMK A01 T02580136  RH  047%=      5-min Rain = 0
KCH1 190125Z 18007KT 26/14 A2968 RMK A01 T02580136  RH  047%=      5-min Rain = 0
KCH1 190126Z 18008KT 26/14 A2968 RMK A01 T02580137  RH  047%=      5-min Rain = 0
KCH1 190127Z 18008KT 26/14 A2968 RMK A01 T02570136  RH  047%=      5-min Rain = 0
KCH1 190128Z 18009KT 26/14 A2968 RMK A01 T02570136  RH  047%=      5-min Rain = 0
KCH1 190129Z 18007KT 26/14 A2968 RMK A01 T02570136  RH  047%=      5-min Rain = 0
KCH1 190130Z 18006KT 26/14 A2968 RMK A01 T02570136  RH  047%=      5-min Rain = 0
KCH1 190131Z 19006KT 26/14 A2968 RMK A01 T02560136  RH  047%=      5-min Rain = 0
KCH1 190132Z 18007KT 26/14 A2968 RMK A01 T02560136  RH  048%=      5-min Rain = 0
KCH1 190133Z 18008KT 26/14 A2968 RMK A01 T02550136  RH  048%=      5-min Rain = 0
KCH1 190134Z 18008KT 26/14 A2968 RMK A01 T02550136  RH  048%=      5-min Rain = 0
KCH1 190135Z 19008KT 26/14 A2968 RMK A01 T02560137  RH  048%=      5-min Rain = 0
KCH1 190136Z 19008KT 26/14 A2969 RMK A01 T02550136  RH  048%=      5-min Rain = 0
KCH1 190137Z 18007KT 26/14 A2969 RMK A01 T02550136  RH  048%=      5-min Rain = 0
KCH1 190138Z 18007KT 26/14 A2969 RMK A01 T02550137  RH  048%=      5-min Rain = 0
KCH1 190139Z 18008KT 26/14 A2969 RMK A01 T02550137  RH  048%=      5-min Rain = 0
KCH1 190140Z 18007KT 26/14 A2969 RMK A01 T02550137  RH  048%=      5-min Rain = 0
KCH1 190141Z 18009KT 25/14 A2969 RMK A01 T02540137  RH  048%=      5-min Rain = 0
KCH1 190142Z 18007KT 25/14 A2969 RMK A01 T02540137  RH  048%=      5-min Rain = 0
KCH1 190143Z 19006KT 25/14 A2969 RMK A01 T02540137  RH  048%=      5-min Rain = 0
KCH1 190144Z 19007KT 25/14 A2969 RMK A01 T02530137  RH  048%=      5-min Rain = 0
KCH1 190145Z 18009KT 25/14 A2969 RMK A01 T02520136  RH  049%=      5-min Rain = 0
KCH1 190146Z 18007KT 25/14 A2969 RMK A01 T02520137  RH  049%=      5-min Rain = 0
KCH1 190147Z 19007KT 25/14 A2968 RMK A01 T02510137  RH  049%=      5-min Rain = 0
KCH1 190148Z 18007KT 25/14 A2968 RMK A01 T02510137  RH  049%=      5-min Rain = 0
KCH1 190149Z 18007KT 25/14 A2968 RMK A01 T02510137  RH  049%=      5-min Rain = 0
KCH1 190150Z 18008KT 25/14 A2968 RMK A01 T02510137  RH  049%=      5-min Rain = 0
KCH1 190151Z 18006KT 25/14 A2968 RMK A01 T02510137  RH  049%=      5-min Rain = 0
KCH1 190152Z 18008KT 25/14 A2968 RMK A01 T02510137  RH  049%=      5-min Rain = 0
KCH1 190153Z 18006KT 25/14 A2968 RMK A01 T02500137  RH  049%=      5-min Rain = 0
KCH1 190154Z 18008KT 25/14 A2968 RMK A01 T02500137  RH  049%=      5-min Rain = 0
KCH1 190155Z 18007KT 25/14 A2968 RMK A01 T02500137  RH  049%=      5-min Rain = 0
KCH1 190156Z 18007KT 25/14 A2968 RMK A01 T02500137  RH  049%=      5-min Rain = 0
KCH1 190157Z 18007KT 25/14 A2968 RMK A01 T02490137  RH  050%=      5-min Rain = 0
KCH1 190158Z 18007KT 25/14 A2968 RMK A01 T02490137  RH  050%=      5-min Rain = 0
KCH1 190159Z 18007KT 25/14 A2968 RMK A01 T02490137  RH  050%=      5-min Rain = 0
KCH1 190200Z 18008KT 25/14 A2968 RMK A01 T02480137  RH  050%=      5-min Rain = 0
KCH1 190201Z 18005KT 25/14 A2968 RMK A01 T02480137  RH  050%=      5-min Rain = 0
KCH1 190202Z 18006KT 25/14 A2968 RMK A01 T02480137  RH  050%=      5-min Rain = 0
KCH1 190203Z 19006KT 25/14 A2968 RMK A01 T02480137  RH  050%=      5-min Rain = 0
KCH1 190204Z 18007KT 25/14 A2968 RMK A01 T02470137  RH  050%=      5-min Rain = 0
KCH1 190205Z 18006KT 25/14 A2969 RMK A01 T02470137  RH  050%=      5-min Rain = 0
KCH1 190206Z 19006KT 25/14 A2969 RMK A01 T02460137  RH  050%=      5-min Rain = 0
KCH1 190207Z 18006KT 25/14 A2969 RMK A01 T02460137  RH  051%=      5-min Rain = 0
KCH1 190208Z 18006KT 25/14 A2969 RMK A01 T02450137  RH  051%=      5-min Rain = 0
KCH1 190209Z 18005KT 25/14 A2969 RMK A01 T02450137  RH  051%=      5-min Rain = 0
KCH1 190210Z 17006KT 24/14 A2969 RMK A01 T02440137  RH  051%=      5-min Rain = 0
KCH1 190211Z 19006KT 24/14 A2969 RMK A01 T02430137  RH  051%=      5-min Rain = 0
KCH1 190212Z 19006KT 24/14 A2969 RMK A01 T02440137  RH  051%=      5-min Rain = 0
KCH1 190213Z 19005KT 24/14 A2969 RMK A01 T02430137  RH  051%=      5-min Rain = 0
KCH1 190214Z 18006KT 24/14 A2969 RMK A01 T02430137  RH  052%=      5-min Rain = 0
KCH1 190215Z 18005KT 24/14 A2969 RMK A01 T02420136  RH  052%=      5-min Rain = 0
KCH1 190216Z 17005KT 24/14 A2969 RMK A01 T02410136  RH  052%=      5-min Rain = 0
KCH1 190217Z 17005KT 24/14 A2969 RMK A01 T02400137  RH  052%=      5-min Rain = 0
KCH1 190218Z 17005KT 24/14 A2969 RMK A01 T02400136  RH  052%=      5-min Rain = 0
KCH1 190219Z 17005KT 24/14 A2969 RMK A01 T02390137  RH  053%=      5-min Rain = 0
KCH1 190220Z 17005KT 24/14 A2969 RMK A01 T02390136  RH  053%=      5-min Rain = 0
KCH1 190221Z 16005KT 24/14 A2969 RMK A01 T02380136  RH  053%=      5-min Rain = 0
KCH1 190222Z 17005KT 24/14 A2969 RMK A01 T02380137  RH  053%=      5-min Rain = 0
KCH1 190223Z 18005KT 24/14 A2969 RMK A01 T02360136  RH  053%=      5-min Rain = 0
KCH1 190224Z 18005KT 24/14 A2969 RMK A01 T02360136  RH  054%=      5-min Rain = 0
KCH1 190225Z 19005KT 24/14 A2969 RMK A01 T02360136  RH  054%=      5-min Rain = 0
KCH1 190226Z 19006KT 24/14 A2969 RMK A01 T02360137  RH  054%=      5-min Rain = 0
KCH1 190227Z 19007KT 24/14 A2969 RMK A01 T02360137  RH  054%=      5-min Rain = 0
KCH1 190228Z 19007KT 24/14 A2969 RMK A01 T02360136  RH  054%=      5-min Rain = 0
KCH1 190229Z 19006KT 24/14 A2969 RMK A01 T02360137  RH  054%=      5-min Rain = 0
KCH1 190230Z 19006KT 24/14 A2969 RMK A01 T02360137  RH  054%=      5-min Rain = 0
KCH1 190231Z 19005KT 24/14 A2969 RMK A01 T02360137  RH  054%=      5-min Rain = 0
KCH1 190232Z 18006KT 24/14 A2969 RMK A01 T02360137  RH  054%=      5-min Rain = 0
KCH1 190233Z 18006KT 24/14 A2969 RMK A01 T02360137  RH  054%=      5-min Rain = 0
KCH1 190234Z 18006KT 24/14 A2969 RMK A01 T02360136  RH  054%=      5-min Rain = 0
KCH1 190235Z 17006KT 24/14 A2969 RMK A01 T02360137  RH  054%=      5-min Rain = 0
KCH1 190236Z 17006KT 24/14 A2969 RMK A01 T02360137  RH  054%=      5-min Rain = 0
KCH1 190237Z 17006KT 24/14 A297 RMK A01 T02370137  RH  054%=      5-min Rain = 0
KCH1 190238Z 17006KT 24/14 A297 RMK A01 T02370137  RH  053%=      5-min Rain = 0
KCH1 190239Z 18006KT 24/14 A297 RMK A01 T02370137  RH  053%=      5-min Rain = 0
KCH1 190240Z 17006KT 24/14 A297 RMK A01 T02380137  RH  053%=      5-min Rain = 0
KCH1 190241Z 18006KT 24/14 A297 RMK A01 T02380137  RH  053%=      5-min Rain = 0
KCH1 190242Z 18005KT 24/14 A297 RMK A01 T02390137  RH  053%=      5-min Rain = 0
KCH1 190243Z 18005KT 24/14 A297 RMK A01 T02390137  RH  053%=      5-min Rain = 0
KCH1 190244Z 18004KT 24/14 A297 RMK A01 T02390137  RH  053%=      5-min Rain = 0
KCH1 190245Z 21002KT 24/14 A2971 RMK A01 T02390137  RH  053%=      5-min Rain = 0
KCH1 190246Z 27003KT 24/14 A2972 RMK A01 T02390138  RH  053%=      5-min Rain = 0
KCH1 190247Z 29006KT 24/14 A2972 RMK A01 T02400139  RH  053%=      5-min Rain = 0
KCH1 190248Z 31007KT 24/14 A2972 RMK A01 T02390140  RH  054%=      5-min Rain = 0
KCH1 190249Z 32007KT 24/14 A2972 RMK A01 T02380141  RH  054%=      5-min Rain = 0
KCH1 190250Z 31006KT 24/14 A2972 RMK A01 T02370143  RH  056%=      5-min Rain = 0
KCH1 190251Z 32006KT 24/14 A2972 RMK A01 T02360144  RH  056%=      5-min Rain = 0
KCH1 190252Z 34004KT 23/15 A2972 RMK A01 T02340147  RH  058%=      5-min Rain = 0
KCH1 190253Z 36005KT 23/15 A2972 RMK A01 T02320151  RH  060%=      5-min Rain = 0
KCH1 190254Z 01005KT 23/15 A2971 RMK A01 T02290153  RH  062%=      5-min Rain = 0
KCH1 190255Z 01005KT 23/16 A2971 RMK A01 T02260155  RH  064%=      5-min Rain = 0
KCH1 190256Z 00006KT 22/16 A2971 RMK A01 T02230157  RH  066%=      5-min Rain = 0
KCH1 190257Z 35007KT 22/16 A2971 RMK A01 T02190157  RH  068%=      5-min Rain = 0
KCH1 190258Z 35006KT 22/16 A2972 RMK A01 T02170157  RH  069%=      5-min Rain = 0
KCH1 190259Z 36006KT 22/16 A2972 RMK A01 T02160157  RH  069%=      5-min Rain = 0
KCH1 190300Z 01008KT 22/16 A2971 RMK A01 T02150155  RH  069%=      5-min Rain = 0
KCH1 190301Z 35008KT 22/15 A2971 RMK A01 T02150153  RH  068%=      5-min Rain = 0
KCH1 190302Z 35006KT 22/15 A2972 RMK A01 T02160150  RH  066%=      5-min Rain = 0
KCH1 190303Z 32005KT 22/15 A2972 RMK A01 T02170152  RH  067%=      5-min Rain = 0
KCH1 190304Z 25005KT 22/15 A2972 RMK A01 T02190151  RH  065%=      5-min Rain = 0
KCH1 190305Z 22003KT 22/15 A2972 RMK A01 T02230146  RH  062%=      5-min Rain = 0
KCH1 190306Z 23002KT 23/15 A2972 RMK A01 T02280146  RH  060%=      5-min Rain = 0
KCH1 190307Z 22003KT 23/15 A2972 RMK A01 T02310146  RH  059%=      5-min Rain = 0
KCH1 190308Z 20001KT 23/15 A2972 RMK A01 T02330151  RH  060%=      5-min Rain = 0
KCH1 190309Z 22003KT 23/16 A2972 RMK A01 T02330157  RH  062%=      5-min Rain = 0
KCH1 190310Z 19004KT 23/15 A2972 RMK A01 T02310154  RH  062%=      5-min Rain = 0
KCH1 190311Z 14005KT 23/16 A2972 RMK A01 T02280157  RH  064%=      5-min Rain = 0
KCH1 190312Z 14005KT 22/16 A2972 RMK A01 T02230158  RH  066%=      5-min Rain = 0
KCH1 190313Z 15006KT 22/16 A2972 RMK A01 T02200158  RH  068%=      5-min Rain = 0
KCH1 190314Z 13006KT 22/16 A2972 RMK A01 T02180157  RH  068%=      5-min Rain = 0
KCH1 190315Z 15005KT 22/16 A2973 RMK A01 T02170158  RH  069%=      5-min Rain = 0
KCH1 190316Z 17004KT 22/16 A2973 RMK A01 T02160161  RH  071%=      5-min Rain = 0
KCH1 190317Z 16002KT 21/16 A2973 RMK A01 T02140163  RH  073%=      5-min Rain = 0
KCH1 190318Z 16001KT 21/16 A2973 RMK A01 T02130162  RH  073%=      5-min Rain = 0
KCH1 190319Z 14001KT 21/16 A2974 RMK A01 T02120161  RH  073%=      5-min Rain = 0.01
KCH1 190320Z 15001KT 21/16 A2974 RMK A01 T02110159  RH  072%=      5-min Rain = 0
KCH1 190321Z 13001KT 21/17 A2974 RMK A01 T02110165  RH  075%=      5-min Rain = 0.01
KCH1 190322Z 11002KT 21/17 A2974 RMK A01 T02100168  RH  077%=      5-min Rain = 0
KCH1 190323Z 09003KT 21/16 A2973 RMK A01 T02090164  RH  076%=      5-min Rain = 0
KCH1 190324Z 07003KT 21/17 A2973 RMK A01 T02070167  RH  078%=      5-min Rain = 0
KCH1 190325Z 08004KT 21/17 A2973 RMK A01 T02050171  RH  081%=      5-min Rain = 0
KCH1 190326Z 08002KT 20/17 A2973 RMK A01 T02010171  RH  083%=      5-min Rain = 0
KCH1 190327Z 06002KT 20/17 A2973 RMK A01 T01990169  RH  083%=      5-min Rain = 0
KCH1 190328Z 06002KT 20/17 A2974 RMK A01 T01980169  RH  083%=      5-min Rain = 0
KCH1 190329Z 20001KT 20/17 A2974 RMK A01 T01980170  RH  084%=      5-min Rain = 0
KCH1 190330Z 20003KT 20/17 A2975 RMK A01 T01980170  RH  084%=      5-min Rain = 0
KCH1 190331Z 21003KT 20/17 A2975 RMK A01 T01970172  RH  085%=      5-min Rain = 0
KCH1 190332Z 19001KT 20/17 A2975 RMK A01 T01960172  RH  086%=      5-min Rain = 0
KCH1 190333Z 18003KT 20/17 A2975 RMK A01 T01960171  RH  085%=      5-min Rain = 0
KCH1 190334Z 25005KT 20/17 A2975 RMK A01 T01960171  RH  085%=      5-min Rain = 0
KCH1 190335Z 23003KT 20/17 A2976 RMK A01 T01960172  RH  086%=      5-min Rain = 0
KCH1 190336Z 25002KT 20/17 A2976 RMK A01 T01960172  RH  086%=      5-min Rain = 0
KCH1 190337Z 25004KT 20/17 A2976 RMK A01 T01970172  RH  086%=      5-min Rain = 0
KCH1 190338Z 25005KT 20/17 A2976 RMK A01 T01970174  RH  087%=      5-min Rain = 0
KCH1 190339Z 24006KT 20/17 A2976 RMK A01 T01970173  RH  086%=      5-min Rain = 0
KCH1 190340Z 24005KT 20/17 A2976 RMK A01 T01980172  RH  085%=      5-min Rain = 0
KCH1 190341Z 24004KT 20/17 A2976 RMK A01 T01990173  RH  085%=      5-min Rain = 0
KCH1 190342Z 24004KT 20/17 A2976 RMK A01 T01990172  RH  084%=      5-min Rain = 0
KCH1 190343Z 24002KT 20/17 A2976 RMK A01 T02000172  RH  084%=      5-min Rain = 0
KCH1 190344Z 23001KT 20/17 A2976 RMK A01 T02010173  RH  084%=      5-min Rain = 0
KCH1 190345Z 20002KT 20/18 A2975 RMK A01 T02010175  RH  085%=      5-min Rain = 0
KCH1 190346Z 17003KT 20/18 A2975 RMK A01 T02010175  RH  085%=      5-min Rain = 0
KCH1 190347Z 17004KT 20/18 A2975 RMK A01 T02000175  RH  086%=      5-min Rain = 0.01
KCH1 190348Z 16006KT 20/18 A2974 RMK A01 T01990176  RH  087%=      5-min Rain = 0
KCH1 190349Z 17006KT 20/18 A2974 RMK A01 T01970176  RH  088%=      5-min Rain = 0
KCH1 190350Z 19006KT 20/18 A2974 RMK A01 T01960175  RH  088%=      5-min Rain = 0
KCH1 190351Z 20007KT 20/18 A2974 RMK A01 T01960175  RH  087%=      5-min Rain = 0
KCH1 190352Z 19007KT 20/18 A2975 RMK A01 T01970175  RH  087%=      5-min Rain = 0
KCH1 190353Z 18006KT 20/18 A2974 RMK A01 T01970175  RH  087%=      5-min Rain = 0
KCH1 190354Z 17005KT 20/18 A2974 RMK A01 T01970175  RH  087%=      5-min Rain = 0
KCH1 190355Z 19006KT 20/17 A2974 RMK A01 T01970173  RH  086%=      5-min Rain = 0.01
KCH1 190356Z 18004KT 20/17 A2974 RMK A01 T01990173  RH  085%=      5-min Rain = 0
KCH1 190357Z 19004KT 20/17 A2974 RMK A01 T02000172  RH  084%=      5-min Rain = 0
KCH1 190358Z 21004KT 20/17 A2974 RMK A01 T02010172  RH  084%=      5-min Rain = 0
KCH1 190359Z 22006KT 20/17 A2975 RMK A01 T02020173  RH  083%=      5-min Rain = 0
KCH1 190400Z 20004KT 20/17 A2974 RMK A01 T02020172  RH  083%=      5-min Rain = 0
KCH1 190401Z 19004KT 20/17 A2974 RMK A01 T02030172  RH  083%=      5-min Rain = 0
KCH1 190402Z 17004KT 20/17 A2974 RMK A01 T02030173  RH  083%=      5-min Rain = 0
KCH1 190403Z 18004KT 20/17 A2974 RMK A01 T02020173  RH  083%=      5-min Rain = 0
KCH1 190404Z 19004KT 20/17 A2973 RMK A01 T02020171  RH  083%=      5-min Rain = 0
KCH1 190405Z 21005KT 20/17 A2974 RMK A01 T02010167  RH  080%=      5-min Rain = 0
KCH1 190406Z 20006KT 20/16 A2974 RMK A01 T02030164  RH  078%=      5-min Rain = 0
KCH1 190407Z 20005KT 20/16 A2973 RMK A01 T02040164  RH  077%=      5-min Rain = 0
KCH1 190408Z 20003KT 21/16 A2973 RMK A01 T02050163  RH  077%=      5-min Rain = 0
KCH1 190409Z 21003KT 21/16 A2973 RMK A01 T02060164  RH  077%=      5-min Rain = 0
KCH1 190410Z 20003KT 21/16 A2974 RMK A01 T02050163  RH  077%=      5-min Rain = 0
KCH1 190411Z 19002KT 21/16 A2974 RMK A01 T02060164  RH  077%=      5-min Rain = 0
KCH1 190412Z 18002KT 21/16 A2974 RMK A01 T02050164  RH  077%=      5-min Rain = 0
KCH1 190413Z 17001KT 21/16 A2974 RMK A01 T02050164  RH  077%=      5-min Rain = 0
KCH1 190414Z 17001KT 20/17 A2974 RMK A01 T02040165  RH  078%=      5-min Rain = 0
KCH1 190415Z 14001KT 20/17 A2974 RMK A01 T02030165  RH  078%=      5-min Rain = 0
KCH1 190416Z 13001KT 20/16 A2973 RMK A01 T02020164  RH  079%=      5-min Rain = 0
KCH1 190417Z 11001KT 20/16 A2973 RMK A01 T02020164  RH  079%=      5-min Rain = 0
KCH1 190418Z 12001KT 20/17 A2973 RMK A01 T02010166  RH  080%=      5-min Rain = 0
KCH1 190419Z 11002KT 20/17 A2973 RMK A01 T02000165  RH  080%=      5-min Rain = 0
KCH1 190420Z 11003KT 20/17 A2973 RMK A01 T01990166  RH  081%=      5-min Rain = 0
KCH1 190421Z 12003KT 20/17 A2973 RMK A01 T01980167  RH  082%=      5-min Rain = 0
KCH1 190422Z 14002KT 20/17 A2974 RMK A01 T01970167  RH  083%=      5-min Rain = 0
KCH1 190423Z 14002KT 20/17 A2974 RMK A01 T01950168  RH  084%=      5-min Rain = 0
KCH1 190424Z 16002KT 19/17 A2974 RMK A01 T01940168  RH  085%=      5-min Rain = 0
KCH1 190425Z 18002KT 19/17 A2975 RMK A01 T01930168  RH  085%=      5-min Rain = 0
KCH1 190426Z 19002KT 19/17 A2975 RMK A01 T01920167  RH  085%=      5-min Rain = 0
KCH1 190427Z 20003KT 19/17 A2975 RMK A01 T01920166  RH  085%=      5-min Rain = 0
KCH1 190428Z 18002KT 19/16 A2975 RMK A01 T01920164  RH  084%=      5-min Rain = 0
KCH1 190429Z 17002KT 19/16 A2975 RMK A01 T01930164  RH  083%=      5-min Rain = 0
KCH1 190430Z 17002KT 19/16 A2975 RMK A01 T01930163  RH  083%=      5-min Rain = 0
KCH1 190431Z 18003KT 19/16 A2975 RMK A01 T01940163  RH  082%=      5-min Rain = 0
KCH1 190432Z 18003KT 20/16 A2974 RMK A01 T01950163  RH  082%=      5-min Rain = 0
KCH1 190433Z 17003KT 20/16 A2974 RMK A01 T01960163  RH  082%=      5-min Rain = 0
KCH1 190434Z 16003KT 20/16 A2974 RMK A01 T01960163  RH  081%=      5-min Rain = 0
KCH1 190435Z 16003KT 20/16 A2974 RMK A01 T01960163  RH  081%=      5-min Rain = 0
KCH1 190436Z 16002KT 20/16 A2974 RMK A01 T01960163  RH  081%=      5-min Rain = 0
KCH1 190437Z 16002KT 20/16 A2974 RMK A01 T01960164  RH  081%=      5-min Rain = 0
KCH1 190438Z 16002KT 20/16 A2974 RMK A01 T01960164  RH  082%=      5-min Rain = 0
KCH1 190439Z 16001KT 20/17 A2974 RMK A01 T01950165  RH  083%=      5-min Rain = 0
KCH1 190440Z 17002KT 19/17 A2974 RMK A01 T01940165  RH  083%=      5-min Rain = 0
KCH1 190441Z 16001KT 19/17 A2974 RMK A01 T01930165  RH  084%=      5-min Rain = 0
KCH1 190442Z 18002KT 19/17 A2974 RMK A01 T01930166  RH  084%=      5-min Rain = 0
KCH1 190443Z 19002KT 19/17 A2974 RMK A01 T01920166  RH  085%=      5-min Rain = 0
KCH1 190444Z 20002KT 19/17 A2975 RMK A01 T01910165  RH  085%=      5-min Rain = 0
KCH1 190445Z 21003KT 19/16 A2975 RMK A01 T01910164  RH  084%=      5-min Rain = 0
KCH1 190446Z 21003KT 19/16 A2975 RMK A01 T01910162  RH  083%=      5-min Rain = 0
KCH1 190447Z 21003KT 19/16 A2975 RMK A01 T01920161  RH  083%=      5-min Rain = 0
KCH1 190448Z 21004KT 19/16 A2975 RMK A01 T01920161  RH  083%=      5-min Rain = 0
KCH1 190449Z 22003KT 19/16 A2975 RMK A01 T01920161  RH  082%=      5-min Rain = 0
KCH1 190450Z 22003KT 19/16 A2975 RMK A01 T01930161  RH  082%=      5-min Rain = 0
KCH1 190451Z 21003KT 19/16 A2975 RMK A01 T01930161  RH  082%=      5-min Rain = 0
KCH1 190452Z 22004KT 19/16 A2975 RMK A01 T01930160  RH  081%=      5-min Rain = 0
KCH1 190453Z 23003KT 19/16 A2975 RMK A01 T01930160  RH  081%=      5-min Rain = 0
KCH1 190454Z 23004KT 19/16 A2975 RMK A01 T01930160  RH  081%=      5-min Rain = 0
KCH1 190455Z 23003KT 19/16 A2975 RMK A01 T01930160  RH  081%=      5-min Rain = 0
KCH1 190456Z 23003KT 19/16 A2975 RMK A01 T01930159  RH  081%=      5-min Rain = 0
KCH1 190457Z 23003KT 19/16 A2975 RMK A01 T01930159  RH  081%=      5-min Rain = 0
KCH1 190458Z 24002KT 19/16 A2975 RMK A01 T01930159  RH  080%=      5-min Rain = 0
KCH1 190459Z 26002KT 19/16 A2975 RMK A01 T01930159  RH  080%=      5-min Rain = 0

Page generated in 0.0708 seconds.